<?xml version="1.0" encoding="UTF-8" standalone="no" ?>
<gpx xmlns="http://www.topografix.com/GPX/1/1" xmlns:xsi="http://www.w3.org/2001/XMLSchema-instance" xsi:schemaLocation="http://www.topografix.com/GPX/1/1 http://www.topografix.com/GPX/1/1/gpx.xsd" version="1.1" creator="VisuGPX - https://www.visugpx.com">
  <metadata>
    <name>Tour de St Clar de Rivière VOK</name>
  </metadata>
  <wpt lat="43.46809" lon="1.21187">
    <ele>215</ele>
    <name><![CDATA[parking départ possible]]></name>
  </wpt>
  <wpt lat="43.4693" lon="1.20923">
    <ele>199</ele>
    <name><![CDATA[Quitter la route: prendre le chemin à gauche.]]></name>
  </wpt>
  <wpt lat="43.47525" lon="1.21425">
    <ele>183</ele>
    <name><![CDATA[prendre à gauche, contournement station epur.]]></name>
  </wpt>
  <wpt lat="43.47811" lon="1.20412">
    <ele>208</ele>
    <name><![CDATA[reprise chemin]]></name>
  </wpt>
  <wpt lat="43.48071" lon="1.19873">
    <ele>202</ele>
    <name><![CDATA[Continuer tout droit : Chemin rechargé en terre...]]></name>
  </wpt>
  <wpt lat="43.48193" lon="1.19854">
    <ele>205</ele>
    <name><![CDATA[chemin rechargé en terre . Demandera un peu de végétation.]]></name>
  </wpt>
  <wpt lat="43.48307" lon="1.19861">
    <ele>197</ele>
    <name><![CDATA[reprise chemin bordure sous bois ( droite / gauche )]]></name>
  </wpt>
  <wpt lat="43.48519" lon="1.21702">
    <ele>175</ele>
    <name><![CDATA[Quitter la route : chemin à travers champs]]></name>
  </wpt>
  <wpt lat="43.4768" lon="1.2227">
    <ele>178</ele>
    <name><![CDATA[Chemin vers la droite puis 50m à Gauche]]></name>
  </wpt>
  <wpt lat="43.47169" lon="1.21863">
    <ele>178</ele>
    <name><![CDATA[Route à gauche]]></name>
  </wpt>
  <wpt lat="43.46873" lon="1.22059">
    <ele>185</ele>
    <name><![CDATA[Traverser, en face]]></name>
  </wpt>
  <wpt lat="43.46555" lon="1.22153">
    <ele>182</ele>
    <name><![CDATA[A gauche, dernière montée]]></name>
  </wpt>
  <trk>
    <name><![CDATA[Tour de St Clar de Rivière VOK]]></name>
    <trkseg>
      <trkpt lat="43.46578" lon="1.21653">
        <ele>231</ele>
        <time>2019-09-23T09:39:51+02:00</time>
      </trkpt>
      <trkpt lat="43.46587" lon="1.2165">
        <ele>231</ele>
        <time>2019-09-23T09:40:11+02:00</time>
      </trkpt>
      <trkpt lat="43.46596" lon="1.21646">
        <ele>231</ele>
        <time>2019-09-23T09:40:18+02:00</time>
      </trkpt>
      <trkpt lat="43.46606" lon="1.21643">
        <ele>230</ele>
        <time>2019-09-23T09:40:26+02:00</time>
      </trkpt>
      <trkpt lat="43.46613" lon="1.21635">
        <ele>229</ele>
        <time>2019-09-23T09:40:38+02:00</time>
      </trkpt>
      <trkpt lat="43.46618" lon="1.21622">
        <ele>226</ele>
        <time>2019-09-23T09:40:44+02:00</time>
      </trkpt>
      <trkpt lat="43.46625" lon="1.21615">
        <ele>225</ele>
        <time>2019-09-23T09:40:51+02:00</time>
      </trkpt>
      <trkpt lat="43.46635" lon="1.2161">
        <ele>224</ele>
        <time>2019-09-23T09:40:58+02:00</time>
      </trkpt>
      <trkpt lat="43.46644" lon="1.21611">
        <ele>218</ele>
        <time>2019-09-23T09:41:14+02:00</time>
      </trkpt>
      <trkpt lat="43.46653" lon="1.21615">
        <ele>216</ele>
        <time>2019-09-23T09:41:19+02:00</time>
      </trkpt>
      <trkpt lat="43.46663" lon="1.21612">
        <ele>215</ele>
        <time>2019-09-23T09:41:24+02:00</time>
      </trkpt>
      <trkpt lat="43.46672" lon="1.21611">
        <ele>213</ele>
        <time>2019-09-23T09:41:31+02:00</time>
      </trkpt>
      <trkpt lat="43.46682" lon="1.21613">
        <ele>212</ele>
        <time>2019-09-23T09:41:36+02:00</time>
      </trkpt>
      <trkpt lat="43.46691" lon="1.21614">
        <ele>212</ele>
        <time>2019-09-23T09:41:42+02:00</time>
      </trkpt>
      <trkpt lat="43.46701" lon="1.21611">
        <ele>212</ele>
        <time>2019-09-23T09:41:49+02:00</time>
      </trkpt>
      <trkpt lat="43.46711" lon="1.21614">
        <ele>212</ele>
        <time>2019-09-23T09:41:55+02:00</time>
      </trkpt>
      <trkpt lat="43.46721" lon="1.21612">
        <ele>212</ele>
        <time>2019-09-23T09:41:59+02:00</time>
      </trkpt>
      <trkpt lat="43.4673" lon="1.21611">
        <ele>213</ele>
        <time>2019-09-23T09:42:05+02:00</time>
      </trkpt>
      <trkpt lat="43.4674" lon="1.2161">
        <ele>215</ele>
        <time>2019-09-23T09:42:12+02:00</time>
      </trkpt>
      <trkpt lat="43.4675" lon="1.21613">
        <ele>215</ele>
        <time>2019-09-23T09:42:18+02:00</time>
      </trkpt>
      <trkpt lat="43.4676" lon="1.21614">
        <ele>219</ele>
        <time>2019-09-23T09:42:28+02:00</time>
      </trkpt>
      <trkpt lat="43.4677" lon="1.21614">
        <ele>220</ele>
        <time>2019-09-23T09:42:34+02:00</time>
      </trkpt>
      <trkpt lat="43.46777" lon="1.21606">
        <ele>219</ele>
        <time>2019-09-23T09:42:40+02:00</time>
      </trkpt>
      <trkpt lat="43.46778" lon="1.21592">
        <ele>218</ele>
        <time>2019-09-23T09:42:46+02:00</time>
      </trkpt>
      <trkpt lat="43.46776" lon="1.21579">
        <ele>219</ele>
        <time>2019-09-23T09:42:51+02:00</time>
      </trkpt>
      <trkpt lat="43.46778" lon="1.21565">
        <ele>218</ele>
        <time>2019-09-23T09:42:56+02:00</time>
      </trkpt>
      <trkpt lat="43.46777" lon="1.21552">
        <ele>218</ele>
        <time>2019-09-23T09:43:03+02:00</time>
      </trkpt>
      <trkpt lat="43.46777" lon="1.21538">
        <ele>218</ele>
        <time>2019-09-23T09:43:09+02:00</time>
      </trkpt>
      <trkpt lat="43.46779" lon="1.21526">
        <ele>215</ele>
        <time>2019-09-23T09:43:14+02:00</time>
      </trkpt>
      <trkpt lat="43.46777" lon="1.21512">
        <ele>216</ele>
        <time>2019-09-23T09:43:21+02:00</time>
      </trkpt>
      <trkpt lat="43.46775" lon="1.21499">
        <ele>216</ele>
        <time>2019-09-23T09:43:28+02:00</time>
      </trkpt>
      <trkpt lat="43.46775" lon="1.21486">
        <ele>214</ele>
        <time>2019-09-23T09:43:35+02:00</time>
      </trkpt>
      <trkpt lat="43.46777" lon="1.21472">
        <ele>213</ele>
        <time>2019-09-23T09:43:42+02:00</time>
      </trkpt>
      <trkpt lat="43.4678" lon="1.21459">
        <ele>213</ele>
        <time>2019-09-23T09:43:47+02:00</time>
      </trkpt>
      <trkpt lat="43.46778" lon="1.21445">
        <ele>210</ele>
        <time>2019-09-23T09:43:54+02:00</time>
      </trkpt>
      <trkpt lat="43.4678" lon="1.21433">
        <ele>209</ele>
        <time>2019-09-23T09:43:59+02:00</time>
      </trkpt>
      <trkpt lat="43.46782" lon="1.2142">
        <ele>210</ele>
        <time>2019-09-23T09:44:04+02:00</time>
      </trkpt>
      <trkpt lat="43.46778" lon="1.21409">
        <ele>213</ele>
        <time>2019-09-23T09:44:11+02:00</time>
      </trkpt>
      <trkpt lat="43.46777" lon="1.21396">
        <ele>215</ele>
        <time>2019-09-23T09:44:18+02:00</time>
      </trkpt>
      <trkpt lat="43.4678" lon="1.21384">
        <ele>217</ele>
        <time>2019-09-23T09:44:23+02:00</time>
      </trkpt>
      <trkpt lat="43.46779" lon="1.2137">
        <ele>218</ele>
        <time>2019-09-23T09:44:28+02:00</time>
      </trkpt>
      <trkpt lat="43.46781" lon="1.21356">
        <ele>219</ele>
        <time>2019-09-23T09:44:34+02:00</time>
      </trkpt>
      <trkpt lat="43.46784" lon="1.21343">
        <ele>217</ele>
        <time>2019-09-23T09:44:40+02:00</time>
      </trkpt>
      <trkpt lat="43.46787" lon="1.21331">
        <ele>216</ele>
        <time>2019-09-23T09:44:45+02:00</time>
      </trkpt>
      <trkpt lat="43.46786" lon="1.21317">
        <ele>216</ele>
        <time>2019-09-23T09:44:52+02:00</time>
      </trkpt>
      <trkpt lat="43.46788" lon="1.21303">
        <ele>217</ele>
        <time>2019-09-23T09:45:00+02:00</time>
      </trkpt>
      <trkpt lat="43.46789" lon="1.2129">
        <ele>218</ele>
        <time>2019-09-23T09:45:05+02:00</time>
      </trkpt>
      <trkpt lat="43.46792" lon="1.21277">
        <ele>219</ele>
        <time>2019-09-23T09:45:10+02:00</time>
      </trkpt>
      <trkpt lat="43.46793" lon="1.21264">
        <ele>220</ele>
        <time>2019-09-23T09:45:17+02:00</time>
      </trkpt>
      <trkpt lat="43.46794" lon="1.2125">
        <ele>221</ele>
        <time>2019-09-23T09:45:24+02:00</time>
      </trkpt>
      <trkpt lat="43.46798" lon="1.21239">
        <ele>222</ele>
        <time>2019-09-23T09:45:29+02:00</time>
      </trkpt>
      <trkpt lat="43.46802" lon="1.21227">
        <ele>224</ele>
        <time>2019-09-23T09:45:34+02:00</time>
      </trkpt>
      <trkpt lat="43.46805" lon="1.21213">
        <ele>222</ele>
        <time>2019-09-23T09:45:43+02:00</time>
      </trkpt>
      <trkpt lat="43.46808" lon="1.212">
        <ele>218</ele>
        <time>2019-09-23T09:45:49+02:00</time>
      </trkpt>
      <trkpt lat="43.46809" lon="1.21187">
        <ele>215</ele>
        <time>2019-09-23T09:46:00+02:00</time>
      </trkpt>
      <trkpt lat="43.4681" lon="1.21173">
        <ele>216</ele>
        <time>2019-09-23T09:46:46+02:00</time>
      </trkpt>
      <trkpt lat="43.46811" lon="1.21159">
        <ele>216</ele>
        <time>2019-09-23T09:46:52+02:00</time>
      </trkpt>
      <trkpt lat="43.46812" lon="1.21146">
        <ele>217</ele>
        <time>2019-09-23T09:46:58+02:00</time>
      </trkpt>
      <trkpt lat="43.46818" lon="1.21135">
        <ele>216</ele>
        <time>2019-09-23T09:47:03+02:00</time>
      </trkpt>
      <trkpt lat="43.46817" lon="1.21121">
        <ele>216</ele>
        <time>2019-09-23T09:47:11+02:00</time>
      </trkpt>
      <trkpt lat="43.46816" lon="1.21108">
        <ele>216</ele>
        <time>2019-09-23T09:47:16+02:00</time>
      </trkpt>
      <trkpt lat="43.46818" lon="1.21095">
        <ele>216</ele>
        <time>2019-09-23T09:47:20+02:00</time>
      </trkpt>
      <trkpt lat="43.4682" lon="1.21082">
        <ele>218</ele>
        <time>2019-09-23T09:47:27+02:00</time>
      </trkpt>
      <trkpt lat="43.46825" lon="1.2107">
        <ele>217</ele>
        <time>2019-09-23T09:47:36+02:00</time>
      </trkpt>
      <trkpt lat="43.46827" lon="1.21057">
        <ele>218</ele>
        <time>2019-09-23T09:47:41+02:00</time>
      </trkpt>
      <trkpt lat="43.4683" lon="1.21044">
        <ele>219</ele>
        <time>2019-09-23T09:47:49+02:00</time>
      </trkpt>
      <trkpt lat="43.46834" lon="1.21032">
        <ele>217</ele>
        <time>2019-09-23T09:48:00+02:00</time>
      </trkpt>
      <trkpt lat="43.4684" lon="1.21021">
        <ele>217</ele>
        <time>2019-09-23T09:48:08+02:00</time>
      </trkpt>
      <trkpt lat="43.46844" lon="1.2101">
        <ele>217</ele>
        <time>2019-09-23T09:48:14+02:00</time>
      </trkpt>
      <trkpt lat="43.46849" lon="1.20998">
        <ele>214</ele>
        <time>2019-09-23T09:48:34+02:00</time>
      </trkpt>
      <trkpt lat="43.46856" lon="1.20989">
        <ele>213</ele>
        <time>2019-09-23T09:48:40+02:00</time>
      </trkpt>
      <trkpt lat="43.46862" lon="1.20979">
        <ele>211</ele>
        <time>2019-09-23T09:48:45+02:00</time>
      </trkpt>
      <trkpt lat="43.46866" lon="1.20966">
        <ele>211</ele>
        <time>2019-09-23T09:48:52+02:00</time>
      </trkpt>
      <trkpt lat="43.46872" lon="1.20956">
        <ele>210</ele>
        <time>2019-09-23T09:48:58+02:00</time>
      </trkpt>
      <trkpt lat="43.46878" lon="1.20946">
        <ele>209</ele>
        <time>2019-09-23T09:49:05+02:00</time>
      </trkpt>
      <trkpt lat="43.46882" lon="1.20941">
        <ele>204</ele>
        <time>2019-09-23T09:49:21+02:00</time>
      </trkpt>
      <trkpt lat="43.46891" lon="1.20936">
        <ele>202</ele>
        <time>2019-09-23T09:49:33+02:00</time>
      </trkpt>
      <trkpt lat="43.46901" lon="1.20931">
        <ele>201</ele>
        <time>2019-09-23T09:49:39+02:00</time>
      </trkpt>
      <trkpt lat="43.46911" lon="1.20927">
        <ele>200</ele>
        <time>2019-09-23T09:49:45+02:00</time>
      </trkpt>
      <trkpt lat="43.4692" lon="1.20924">
        <ele>199</ele>
        <time>2019-09-23T09:49:50+02:00</time>
      </trkpt>
      <trkpt lat="43.4693" lon="1.20923">
        <ele>199</ele>
        <time>2019-09-23T09:49:55+02:00</time>
      </trkpt>
      <trkpt lat="43.4694" lon="1.20925">
        <ele>200</ele>
        <time>2019-09-23T09:50:03+02:00</time>
      </trkpt>
      <trkpt lat="43.46949" lon="1.20926">
        <ele>203</ele>
        <time>2019-09-23T09:50:10+02:00</time>
      </trkpt>
      <trkpt lat="43.46958" lon="1.20931">
        <ele>204</ele>
        <time>2019-09-23T09:50:16+02:00</time>
      </trkpt>
      <trkpt lat="43.46967" lon="1.20933">
        <ele>205</ele>
        <time>2019-09-23T09:50:26+02:00</time>
      </trkpt>
      <trkpt lat="43.46977" lon="1.20938">
        <ele>204</ele>
        <time>2019-09-23T09:50:33+02:00</time>
      </trkpt>
      <trkpt lat="43.46984" lon="1.20946">
        <ele>202</ele>
        <time>2019-09-23T09:50:39+02:00</time>
      </trkpt>
      <trkpt lat="43.4699" lon="1.20958">
        <ele>200</ele>
        <time>2019-09-23T09:50:46+02:00</time>
      </trkpt>
      <trkpt lat="43.46998" lon="1.20966">
        <ele>197</ele>
        <time>2019-09-23T09:50:55+02:00</time>
      </trkpt>
      <trkpt lat="43.47005" lon="1.20976">
        <ele>195</ele>
        <time>2019-09-23T09:51:04+02:00</time>
      </trkpt>
      <trkpt lat="43.4701" lon="1.20986">
        <ele>194</ele>
        <time>2019-09-23T09:51:13+02:00</time>
      </trkpt>
      <trkpt lat="43.47016" lon="1.20996">
        <ele>194</ele>
        <time>2019-09-23T09:51:19+02:00</time>
      </trkpt>
      <trkpt lat="43.47022" lon="1.21005">
        <ele>194</ele>
        <time>2019-09-23T09:51:28+02:00</time>
      </trkpt>
      <trkpt lat="43.4703" lon="1.21012">
        <ele>193</ele>
        <time>2019-09-23T09:51:34+02:00</time>
      </trkpt>
      <trkpt lat="43.47038" lon="1.21017">
        <ele>193</ele>
        <time>2019-09-23T09:51:40+02:00</time>
      </trkpt>
      <trkpt lat="43.47045" lon="1.21026">
        <ele>193</ele>
        <time>2019-09-23T09:51:47+02:00</time>
      </trkpt>
      <trkpt lat="43.47051" lon="1.21036">
        <ele>193</ele>
        <time>2019-09-23T09:51:53+02:00</time>
      </trkpt>
      <trkpt lat="43.47059" lon="1.21045">
        <ele>192</ele>
        <time>2019-09-23T09:51:58+02:00</time>
      </trkpt>
      <trkpt lat="43.47065" lon="1.21056">
        <ele>192</ele>
        <time>2019-09-23T09:52:05+02:00</time>
      </trkpt>
      <trkpt lat="43.47068" lon="1.21068">
        <ele>193</ele>
        <time>2019-09-23T09:52:10+02:00</time>
      </trkpt>
      <trkpt lat="43.4707" lon="1.21083">
        <ele>193</ele>
        <time>2019-09-23T09:52:16+02:00</time>
      </trkpt>
      <trkpt lat="43.47073" lon="1.21096">
        <ele>193</ele>
        <time>2019-09-23T09:52:21+02:00</time>
      </trkpt>
      <trkpt lat="43.47077" lon="1.21111">
        <ele>193</ele>
        <time>2019-09-23T09:52:26+02:00</time>
      </trkpt>
      <trkpt lat="43.47082" lon="1.21123">
        <ele>193</ele>
        <time>2019-09-23T09:52:30+02:00</time>
      </trkpt>
      <trkpt lat="43.47088" lon="1.21135">
        <ele>192</ele>
        <time>2019-09-23T09:52:35+02:00</time>
      </trkpt>
      <trkpt lat="43.47091" lon="1.21147">
        <ele>192</ele>
        <time>2019-09-23T09:52:40+02:00</time>
      </trkpt>
      <trkpt lat="43.47097" lon="1.21158">
        <ele>191</ele>
        <time>2019-09-23T09:52:46+02:00</time>
      </trkpt>
      <trkpt lat="43.47101" lon="1.21172">
        <ele>191</ele>
        <time>2019-09-23T09:52:52+02:00</time>
      </trkpt>
      <trkpt lat="43.47108" lon="1.21181">
        <ele>190</ele>
        <time>2019-09-23T09:52:59+02:00</time>
      </trkpt>
      <trkpt lat="43.47116" lon="1.21187">
        <ele>190</ele>
        <time>2019-09-23T09:53:06+02:00</time>
      </trkpt>
      <trkpt lat="43.47125" lon="1.21196">
        <ele>189</ele>
        <time>2019-09-23T09:53:14+02:00</time>
      </trkpt>
      <trkpt lat="43.47132" lon="1.21206">
        <ele>187</ele>
        <time>2019-09-23T09:53:20+02:00</time>
      </trkpt>
      <trkpt lat="43.47139" lon="1.21214">
        <ele>186</ele>
        <time>2019-09-23T09:53:25+02:00</time>
      </trkpt>
      <trkpt lat="43.47147" lon="1.21221">
        <ele>186</ele>
        <time>2019-09-23T09:53:30+02:00</time>
      </trkpt>
      <trkpt lat="43.47154" lon="1.21228">
        <ele>186</ele>
        <time>2019-09-23T09:53:35+02:00</time>
      </trkpt>
      <trkpt lat="43.47162" lon="1.21234">
        <ele>186</ele>
        <time>2019-09-23T09:53:40+02:00</time>
      </trkpt>
      <trkpt lat="43.47171" lon="1.21241">
        <ele>186</ele>
        <time>2019-09-23T09:53:46+02:00</time>
      </trkpt>
      <trkpt lat="43.4718" lon="1.21245">
        <ele>186</ele>
        <time>2019-09-23T09:53:51+02:00</time>
      </trkpt>
      <trkpt lat="43.4719" lon="1.21246">
        <ele>186</ele>
        <time>2019-09-23T09:53:59+02:00</time>
      </trkpt>
      <trkpt lat="43.47198" lon="1.21253">
        <ele>186</ele>
        <time>2019-09-23T09:54:04+02:00</time>
      </trkpt>
      <trkpt lat="43.47207" lon="1.21259">
        <ele>186</ele>
        <time>2019-09-23T09:54:09+02:00</time>
      </trkpt>
      <trkpt lat="43.47217" lon="1.21264">
        <ele>187</ele>
        <time>2019-09-23T09:54:14+02:00</time>
      </trkpt>
      <trkpt lat="43.47227" lon="1.21268">
        <ele>188</ele>
        <time>2019-09-23T09:54:18+02:00</time>
      </trkpt>
      <trkpt lat="43.47236" lon="1.21271">
        <ele>188</ele>
        <time>2019-09-23T09:54:24+02:00</time>
      </trkpt>
      <trkpt lat="43.47246" lon="1.21274">
        <ele>188</ele>
        <time>2019-09-23T09:54:30+02:00</time>
      </trkpt>
      <trkpt lat="43.47255" lon="1.21282">
        <ele>186</ele>
        <time>2019-09-23T09:54:36+02:00</time>
      </trkpt>
      <trkpt lat="43.47264" lon="1.21284">
        <ele>186</ele>
        <time>2019-09-23T09:54:40+02:00</time>
      </trkpt>
      <trkpt lat="43.47274" lon="1.21285">
        <ele>187</ele>
        <time>2019-09-23T09:54:44+02:00</time>
      </trkpt>
      <trkpt lat="43.47283" lon="1.21289">
        <ele>188</ele>
        <time>2019-09-23T09:54:49+02:00</time>
      </trkpt>
      <trkpt lat="43.47294" lon="1.21291">
        <ele>188</ele>
        <time>2019-09-23T09:54:55+02:00</time>
      </trkpt>
      <trkpt lat="43.47303" lon="1.21293">
        <ele>188</ele>
        <time>2019-09-23T09:55:02+02:00</time>
      </trkpt>
      <trkpt lat="43.47312" lon="1.21297">
        <ele>189</ele>
        <time>2019-09-23T09:55:07+02:00</time>
      </trkpt>
      <trkpt lat="43.47322" lon="1.213">
        <ele>189</ele>
        <time>2019-09-23T09:55:13+02:00</time>
      </trkpt>
      <trkpt lat="43.47331" lon="1.21303">
        <ele>188</ele>
        <time>2019-09-23T09:55:22+02:00</time>
      </trkpt>
      <trkpt lat="43.47341" lon="1.21309">
        <ele>188</ele>
        <time>2019-09-23T09:55:28+02:00</time>
      </trkpt>
      <trkpt lat="43.47349" lon="1.21315">
        <ele>188</ele>
        <time>2019-09-23T09:55:33+02:00</time>
      </trkpt>
      <trkpt lat="43.4736" lon="1.21316">
        <ele>187</ele>
        <time>2019-09-23T09:55:38+02:00</time>
      </trkpt>
      <trkpt lat="43.47369" lon="1.21319">
        <ele>187</ele>
        <time>2019-09-23T09:55:44+02:00</time>
      </trkpt>
      <trkpt lat="43.4738" lon="1.21322">
        <ele>186</ele>
        <time>2019-09-23T09:55:49+02:00</time>
      </trkpt>
      <trkpt lat="43.47389" lon="1.21326">
        <ele>184</ele>
        <time>2019-09-23T09:55:56+02:00</time>
      </trkpt>
      <trkpt lat="43.474" lon="1.21328">
        <ele>183</ele>
        <time>2019-09-23T09:56:03+02:00</time>
      </trkpt>
      <trkpt lat="43.47409" lon="1.2133">
        <ele>183</ele>
        <time>2019-09-23T09:56:09+02:00</time>
      </trkpt>
      <trkpt lat="43.47419" lon="1.21336">
        <ele>184</ele>
        <time>2019-09-23T09:56:15+02:00</time>
      </trkpt>
      <trkpt lat="43.47423" lon="1.21349">
        <ele>184</ele>
        <time>2019-09-23T09:56:22+02:00</time>
      </trkpt>
      <trkpt lat="43.47432" lon="1.21357">
        <ele>185</ele>
        <time>2019-09-23T09:56:28+02:00</time>
      </trkpt>
      <trkpt lat="43.4744" lon="1.21363">
        <ele>186</ele>
        <time>2019-09-23T09:56:33+02:00</time>
      </trkpt>
      <trkpt lat="43.47449" lon="1.21371">
        <ele>186</ele>
        <time>2019-09-23T09:56:39+02:00</time>
      </trkpt>
      <trkpt lat="43.47458" lon="1.21376">
        <ele>186</ele>
        <time>2019-09-23T09:56:43+02:00</time>
      </trkpt>
      <trkpt lat="43.47466" lon="1.21383">
        <ele>185</ele>
        <time>2019-09-23T09:56:49+02:00</time>
      </trkpt>
      <trkpt lat="43.47475" lon="1.21387">
        <ele>184</ele>
        <time>2019-09-23T09:56:54+02:00</time>
      </trkpt>
      <trkpt lat="43.47484" lon="1.21391">
        <ele>183</ele>
        <time>2019-09-23T09:57:00+02:00</time>
      </trkpt>
      <trkpt lat="43.47492" lon="1.214">
        <ele>182</ele>
        <time>2019-09-23T09:57:08+02:00</time>
      </trkpt>
      <trkpt lat="43.47502" lon="1.21406">
        <ele>182</ele>
        <time>2019-09-23T09:57:13+02:00</time>
      </trkpt>
      <trkpt lat="43.47509" lon="1.21414">
        <ele>183</ele>
        <time>2019-09-23T09:57:19+02:00</time>
      </trkpt>
      <trkpt lat="43.47517" lon="1.21419">
        <ele>183</ele>
        <time>2019-09-23T09:57:25+02:00</time>
      </trkpt>
      <trkpt lat="43.47525" lon="1.21425">
        <ele>183</ele>
        <time>2019-09-23T09:57:30+02:00</time>
      </trkpt>
      <trkpt lat="43.47533" lon="1.21417">
        <ele>183</ele>
        <time>2019-09-23T09:57:35+02:00</time>
      </trkpt>
      <trkpt lat="43.47535" lon="1.21404">
        <ele>184</ele>
        <time>2019-09-23T09:57:41+02:00</time>
      </trkpt>
      <trkpt lat="43.47537" lon="1.21392">
        <ele>184</ele>
        <time>2019-09-23T09:57:47+02:00</time>
      </trkpt>
      <trkpt lat="43.47539" lon="1.21379">
        <ele>183</ele>
        <time>2019-09-23T09:57:52+02:00</time>
      </trkpt>
      <trkpt lat="43.47541" lon="1.21366">
        <ele>181</ele>
        <time>2019-09-23T09:57:59+02:00</time>
      </trkpt>
      <trkpt lat="43.47542" lon="1.21353">
        <ele>180</ele>
        <time>2019-09-23T09:58:05+02:00</time>
      </trkpt>
      <trkpt lat="43.47539" lon="1.21341">
        <ele>178</ele>
        <time>2019-09-23T09:58:11+02:00</time>
      </trkpt>
      <trkpt lat="43.47535" lon="1.21328">
        <ele>179</ele>
        <time>2019-09-23T09:58:17+02:00</time>
      </trkpt>
      <trkpt lat="43.47535" lon="1.21315">
        <ele>181</ele>
        <time>2019-09-23T09:58:23+02:00</time>
      </trkpt>
      <trkpt lat="43.47534" lon="1.21301">
        <ele>184</ele>
        <time>2019-09-23T09:58:29+02:00</time>
      </trkpt>
      <trkpt lat="43.47533" lon="1.21288">
        <ele>187</ele>
        <time>2019-09-23T09:58:34+02:00</time>
      </trkpt>
      <trkpt lat="43.47531" lon="1.21275">
        <ele>190</ele>
        <time>2019-09-23T09:58:40+02:00</time>
      </trkpt>
      <trkpt lat="43.47528" lon="1.21262">
        <ele>193</ele>
        <time>2019-09-23T09:58:47+02:00</time>
      </trkpt>
      <trkpt lat="43.47526" lon="1.2125">
        <ele>195</ele>
        <time>2019-09-23T09:58:52+02:00</time>
      </trkpt>
      <trkpt lat="43.47524" lon="1.21238">
        <ele>197</ele>
        <time>2019-09-23T09:58:57+02:00</time>
      </trkpt>
      <trkpt lat="43.47522" lon="1.21224">
        <ele>199</ele>
        <time>2019-09-23T09:59:04+02:00</time>
      </trkpt>
      <trkpt lat="43.47521" lon="1.21211">
        <ele>200</ele>
        <time>2019-09-23T09:59:10+02:00</time>
      </trkpt>
      <trkpt lat="43.47519" lon="1.21199">
        <ele>199</ele>
        <time>2019-09-23T09:59:16+02:00</time>
      </trkpt>
      <trkpt lat="43.47517" lon="1.21187">
        <ele>200</ele>
        <time>2019-09-23T09:59:22+02:00</time>
      </trkpt>
      <trkpt lat="43.47513" lon="1.21175">
        <ele>200</ele>
        <time>2019-09-23T09:59:28+02:00</time>
      </trkpt>
      <trkpt lat="43.47512" lon="1.21162">
        <ele>199</ele>
        <time>2019-09-23T09:59:34+02:00</time>
      </trkpt>
      <trkpt lat="43.4751" lon="1.2115">
        <ele>198</ele>
        <time>2019-09-23T09:59:40+02:00</time>
      </trkpt>
      <trkpt lat="43.47508" lon="1.21136">
        <ele>196</ele>
        <time>2019-09-23T09:59:47+02:00</time>
      </trkpt>
      <trkpt lat="43.47505" lon="1.21122">
        <ele>195</ele>
        <time>2019-09-23T09:59:53+02:00</time>
      </trkpt>
      <trkpt lat="43.47501" lon="1.21108">
        <ele>195</ele>
        <time>2019-09-23T10:00:00+02:00</time>
      </trkpt>
      <trkpt lat="43.47498" lon="1.21095">
        <ele>196</ele>
        <time>2019-09-23T10:00:06+02:00</time>
      </trkpt>
      <trkpt lat="43.47494" lon="1.21083">
        <ele>197</ele>
        <time>2019-09-23T10:00:13+02:00</time>
      </trkpt>
      <trkpt lat="43.47489" lon="1.2107">
        <ele>197</ele>
        <time>2019-09-23T10:00:21+02:00</time>
      </trkpt>
      <trkpt lat="43.47484" lon="1.21059">
        <ele>198</ele>
        <time>2019-09-23T10:00:28+02:00</time>
      </trkpt>
      <trkpt lat="43.47481" lon="1.21046">
        <ele>198</ele>
        <time>2019-09-23T10:00:34+02:00</time>
      </trkpt>
      <trkpt lat="43.47477" lon="1.21032">
        <ele>198</ele>
        <time>2019-09-23T10:00:40+02:00</time>
      </trkpt>
      <trkpt lat="43.47474" lon="1.21018">
        <ele>198</ele>
        <time>2019-09-23T10:00:47+02:00</time>
      </trkpt>
      <trkpt lat="43.47471" lon="1.21006">
        <ele>197</ele>
        <time>2019-09-23T10:00:53+02:00</time>
      </trkpt>
      <trkpt lat="43.47469" lon="1.20992">
        <ele>195</ele>
        <time>2019-09-23T10:01:00+02:00</time>
      </trkpt>
      <trkpt lat="43.47466" lon="1.20979">
        <ele>193</ele>
        <time>2019-09-23T10:01:05+02:00</time>
      </trkpt>
      <trkpt lat="43.47463" lon="1.20965">
        <ele>190</ele>
        <time>2019-09-23T10:01:11+02:00</time>
      </trkpt>
      <trkpt lat="43.47458" lon="1.20953">
        <ele>189</ele>
        <time>2019-09-23T10:01:17+02:00</time>
      </trkpt>
      <trkpt lat="43.47454" lon="1.2094">
        <ele>188</ele>
        <time>2019-09-23T10:01:23+02:00</time>
      </trkpt>
      <trkpt lat="43.47452" lon="1.20928">
        <ele>188</ele>
        <time>2019-09-23T10:01:29+02:00</time>
      </trkpt>
      <trkpt lat="43.47448" lon="1.20916">
        <ele>190</ele>
        <time>2019-09-23T10:01:37+02:00</time>
      </trkpt>
      <trkpt lat="43.47441" lon="1.20906">
        <ele>194</ele>
        <time>2019-09-23T10:01:43+02:00</time>
      </trkpt>
      <trkpt lat="43.47434" lon="1.20896">
        <ele>196</ele>
        <time>2019-09-23T10:01:49+02:00</time>
      </trkpt>
      <trkpt lat="43.47426" lon="1.20887">
        <ele>198</ele>
        <time>2019-09-23T10:01:55+02:00</time>
      </trkpt>
      <trkpt lat="43.47418" lon="1.2088">
        <ele>198</ele>
        <time>2019-09-23T10:02:00+02:00</time>
      </trkpt>
      <trkpt lat="43.4741" lon="1.2087">
        <ele>199</ele>
        <time>2019-09-23T10:02:07+02:00</time>
      </trkpt>
      <trkpt lat="43.47401" lon="1.20862">
        <ele>199</ele>
        <time>2019-09-23T10:02:13+02:00</time>
      </trkpt>
      <trkpt lat="43.47393" lon="1.20856">
        <ele>200</ele>
        <time>2019-09-23T10:02:19+02:00</time>
      </trkpt>
      <trkpt lat="43.47388" lon="1.20846">
        <ele>203</ele>
        <time>2019-09-23T10:02:25+02:00</time>
      </trkpt>
      <trkpt lat="43.47383" lon="1.20835">
        <ele>204</ele>
        <time>2019-09-23T10:02:31+02:00</time>
      </trkpt>
      <trkpt lat="43.47378" lon="1.20824">
        <ele>205</ele>
        <time>2019-09-23T10:02:38+02:00</time>
      </trkpt>
      <trkpt lat="43.47371" lon="1.20813">
        <ele>205</ele>
        <time>2019-09-23T10:02:44+02:00</time>
      </trkpt>
      <trkpt lat="43.47368" lon="1.20799">
        <ele>207</ele>
        <time>2019-09-23T10:02:50+02:00</time>
      </trkpt>
      <trkpt lat="43.47365" lon="1.20786">
        <ele>209</ele>
        <time>2019-09-23T10:02:55+02:00</time>
      </trkpt>
      <trkpt lat="43.47363" lon="1.20773">
        <ele>210</ele>
        <time>2019-09-23T10:03:00+02:00</time>
      </trkpt>
      <trkpt lat="43.47362" lon="1.20759">
        <ele>211</ele>
        <time>2019-09-23T10:03:05+02:00</time>
      </trkpt>
      <trkpt lat="43.47363" lon="1.20746">
        <ele>212</ele>
        <time>2019-09-23T10:03:11+02:00</time>
      </trkpt>
      <trkpt lat="43.47363" lon="1.20732">
        <ele>210</ele>
        <time>2019-09-23T10:03:18+02:00</time>
      </trkpt>
      <trkpt lat="43.47364" lon="1.20719">
        <ele>210</ele>
        <time>2019-09-23T10:03:23+02:00</time>
      </trkpt>
      <trkpt lat="43.47365" lon="1.20705">
        <ele>208</ele>
        <time>2019-09-23T10:03:29+02:00</time>
      </trkpt>
      <trkpt lat="43.47366" lon="1.20691">
        <ele>207</ele>
        <time>2019-09-23T10:03:35+02:00</time>
      </trkpt>
      <trkpt lat="43.4737" lon="1.2068">
        <ele>207</ele>
        <time>2019-09-23T10:03:41+02:00</time>
      </trkpt>
      <trkpt lat="43.47375" lon="1.20668">
        <ele>207</ele>
        <time>2019-09-23T10:03:47+02:00</time>
      </trkpt>
      <trkpt lat="43.47378" lon="1.20656">
        <ele>206</ele>
        <time>2019-09-23T10:03:54+02:00</time>
      </trkpt>
      <trkpt lat="43.47382" lon="1.20645">
        <ele>206</ele>
        <time>2019-09-23T10:04:01+02:00</time>
      </trkpt>
      <trkpt lat="43.47385" lon="1.20632">
        <ele>205</ele>
        <time>2019-09-23T10:04:07+02:00</time>
      </trkpt>
      <trkpt lat="43.47391" lon="1.2062">
        <ele>202</ele>
        <time>2019-09-23T10:04:14+02:00</time>
      </trkpt>
      <trkpt lat="43.47394" lon="1.20608">
        <ele>200</ele>
        <time>2019-09-23T10:04:21+02:00</time>
      </trkpt>
      <trkpt lat="43.47396" lon="1.20595">
        <ele>200</ele>
        <time>2019-09-23T10:04:28+02:00</time>
      </trkpt>
      <trkpt lat="43.47399" lon="1.20581">
        <ele>199</ele>
        <time>2019-09-23T10:04:35+02:00</time>
      </trkpt>
      <trkpt lat="43.47404" lon="1.20571">
        <ele>198</ele>
        <time>2019-09-23T10:04:41+02:00</time>
      </trkpt>
      <trkpt lat="43.47411" lon="1.20563">
        <ele>197</ele>
        <time>2019-09-23T10:04:47+02:00</time>
      </trkpt>
      <trkpt lat="43.47416" lon="1.20553">
        <ele>197</ele>
        <time>2019-09-23T10:04:53+02:00</time>
      </trkpt>
      <trkpt lat="43.47418" lon="1.2054">
        <ele>197</ele>
        <time>2019-09-23T10:04:59+02:00</time>
      </trkpt>
      <trkpt lat="43.4742" lon="1.20528">
        <ele>197</ele>
        <time>2019-09-23T10:05:05+02:00</time>
      </trkpt>
      <trkpt lat="43.47427" lon="1.20517">
        <ele>198</ele>
        <time>2019-09-23T10:05:11+02:00</time>
      </trkpt>
      <trkpt lat="43.4743" lon="1.20505">
        <ele>198</ele>
        <time>2019-09-23T10:05:17+02:00</time>
      </trkpt>
      <trkpt lat="43.47436" lon="1.20494">
        <ele>199</ele>
        <time>2019-09-23T10:05:22+02:00</time>
      </trkpt>
      <trkpt lat="43.47444" lon="1.20486">
        <ele>200</ele>
        <time>2019-09-23T10:05:27+02:00</time>
      </trkpt>
      <trkpt lat="43.47453" lon="1.2048">
        <ele>202</ele>
        <time>2019-09-23T10:05:33+02:00</time>
      </trkpt>
      <trkpt lat="43.47463" lon="1.20478">
        <ele>203</ele>
        <time>2019-09-23T10:05:41+02:00</time>
      </trkpt>
      <trkpt lat="43.47474" lon="1.20476">
        <ele>204</ele>
        <time>2019-09-23T10:05:47+02:00</time>
      </trkpt>
      <trkpt lat="43.47483" lon="1.20473">
        <ele>205</ele>
        <time>2019-09-23T10:05:52+02:00</time>
      </trkpt>
      <trkpt lat="43.47493" lon="1.2047">
        <ele>209</ele>
        <time>2019-09-23T10:05:59+02:00</time>
      </trkpt>
      <trkpt lat="43.47504" lon="1.20469">
        <ele>211</ele>
        <time>2019-09-23T10:06:05+02:00</time>
      </trkpt>
      <trkpt lat="43.47513" lon="1.20469">
        <ele>212</ele>
        <time>2019-09-23T10:06:11+02:00</time>
      </trkpt>
      <trkpt lat="43.47525" lon="1.20466">
        <ele>212</ele>
        <time>2019-09-23T10:06:17+02:00</time>
      </trkpt>
      <trkpt lat="43.47534" lon="1.20463">
        <ele>213</ele>
        <time>2019-09-23T10:06:22+02:00</time>
      </trkpt>
      <trkpt lat="43.47544" lon="1.2046">
        <ele>213</ele>
        <time>2019-09-23T10:06:30+02:00</time>
      </trkpt>
      <trkpt lat="43.47554" lon="1.20459">
        <ele>213</ele>
        <time>2019-09-23T10:06:35+02:00</time>
      </trkpt>
      <trkpt lat="43.47564" lon="1.20453">
        <ele>213</ele>
        <time>2019-09-23T10:06:44+02:00</time>
      </trkpt>
      <trkpt lat="43.47572" lon="1.20447">
        <ele>213</ele>
        <time>2019-09-23T10:06:49+02:00</time>
      </trkpt>
      <trkpt lat="43.4758" lon="1.2044">
        <ele>213</ele>
        <time>2019-09-23T10:06:55+02:00</time>
      </trkpt>
      <trkpt lat="43.4759" lon="1.20433">
        <ele>211</ele>
        <time>2019-09-23T10:07:02+02:00</time>
      </trkpt>
      <trkpt lat="43.47599" lon="1.20427">
        <ele>210</ele>
        <time>2019-09-23T10:07:07+02:00</time>
      </trkpt>
      <trkpt lat="43.47608" lon="1.20424">
        <ele>208</ele>
        <time>2019-09-23T10:07:14+02:00</time>
      </trkpt>
      <trkpt lat="43.47619" lon="1.20423">
        <ele>208</ele>
        <time>2019-09-23T10:07:20+02:00</time>
      </trkpt>
      <trkpt lat="43.47629" lon="1.20422">
        <ele>209</ele>
        <time>2019-09-23T10:07:25+02:00</time>
      </trkpt>
      <trkpt lat="43.47638" lon="1.20422">
        <ele>208</ele>
        <time>2019-09-23T10:07:32+02:00</time>
      </trkpt>
      <trkpt lat="43.47648" lon="1.20421">
        <ele>208</ele>
        <time>2019-09-23T10:07:38+02:00</time>
      </trkpt>
      <trkpt lat="43.47657" lon="1.2042">
        <ele>208</ele>
        <time>2019-09-23T10:07:44+02:00</time>
      </trkpt>
      <trkpt lat="43.47666" lon="1.2042">
        <ele>208</ele>
        <time>2019-09-23T10:07:51+02:00</time>
      </trkpt>
      <trkpt lat="43.47675" lon="1.20417">
        <ele>209</ele>
        <time>2019-09-23T10:07:57+02:00</time>
      </trkpt>
      <trkpt lat="43.47686" lon="1.20418">
        <ele>209</ele>
        <time>2019-09-23T10:08:02+02:00</time>
      </trkpt>
      <trkpt lat="43.47696" lon="1.20417">
        <ele>208</ele>
        <time>2019-09-23T10:08:08+02:00</time>
      </trkpt>
      <trkpt lat="43.47706" lon="1.20415">
        <ele>209</ele>
        <time>2019-09-23T10:08:14+02:00</time>
      </trkpt>
      <trkpt lat="43.47715" lon="1.20413">
        <ele>211</ele>
        <time>2019-09-23T10:08:20+02:00</time>
      </trkpt>
      <trkpt lat="43.47725" lon="1.20417">
        <ele>210</ele>
        <time>2019-09-23T10:08:25+02:00</time>
      </trkpt>
      <trkpt lat="43.47734" lon="1.20416">
        <ele>209</ele>
        <time>2019-09-23T10:08:31+02:00</time>
      </trkpt>
      <trkpt lat="43.47743" lon="1.20419">
        <ele>209</ele>
        <time>2019-09-23T10:08:35+02:00</time>
      </trkpt>
      <trkpt lat="43.47752" lon="1.20422">
        <ele>209</ele>
        <time>2019-09-23T10:08:45+02:00</time>
      </trkpt>
      <trkpt lat="43.47762" lon="1.20423">
        <ele>209</ele>
        <time>2019-09-23T10:08:53+02:00</time>
      </trkpt>
      <trkpt lat="43.47771" lon="1.20424">
        <ele>209</ele>
        <time>2019-09-23T10:09:00+02:00</time>
      </trkpt>
      <trkpt lat="43.47781" lon="1.20421">
        <ele>208</ele>
        <time>2019-09-23T10:09:07+02:00</time>
      </trkpt>
      <trkpt lat="43.47791" lon="1.20419">
        <ele>208</ele>
        <time>2019-09-23T10:09:12+02:00</time>
      </trkpt>
      <trkpt lat="43.47802" lon="1.20416">
        <ele>207</ele>
        <time>2019-09-23T10:09:18+02:00</time>
      </trkpt>
      <trkpt lat="43.47811" lon="1.20412">
        <ele>208</ele>
        <time>2019-09-23T10:09:25+02:00</time>
      </trkpt>
      <trkpt lat="43.4782" lon="1.20409">
        <ele>207</ele>
        <time>2019-09-23T10:09:49+02:00</time>
      </trkpt>
      <trkpt lat="43.47828" lon="1.20403">
        <ele>207</ele>
        <time>2019-09-23T10:09:53+02:00</time>
      </trkpt>
      <trkpt lat="43.47836" lon="1.20395">
        <ele>206</ele>
        <time>2019-09-23T10:09:59+02:00</time>
      </trkpt>
      <trkpt lat="43.47842" lon="1.20385">
        <ele>208</ele>
        <time>2019-09-23T10:10:05+02:00</time>
      </trkpt>
      <trkpt lat="43.47848" lon="1.20375">
        <ele>209</ele>
        <time>2019-09-23T10:10:11+02:00</time>
      </trkpt>
      <trkpt lat="43.47856" lon="1.20368">
        <ele>210</ele>
        <time>2019-09-23T10:10:16+02:00</time>
      </trkpt>
      <trkpt lat="43.47861" lon="1.20356">
        <ele>211</ele>
        <time>2019-09-23T10:10:23+02:00</time>
      </trkpt>
      <trkpt lat="43.47869" lon="1.20347">
        <ele>212</ele>
        <time>2019-09-23T10:10:28+02:00</time>
      </trkpt>
      <trkpt lat="43.47873" lon="1.20336">
        <ele>211</ele>
        <time>2019-09-23T10:10:35+02:00</time>
      </trkpt>
      <trkpt lat="43.47878" lon="1.20323">
        <ele>211</ele>
        <time>2019-09-23T10:10:41+02:00</time>
      </trkpt>
      <trkpt lat="43.47883" lon="1.20313">
        <ele>211</ele>
        <time>2019-09-23T10:10:45+02:00</time>
      </trkpt>
      <trkpt lat="43.47887" lon="1.20301">
        <ele>212</ele>
        <time>2019-09-23T10:10:51+02:00</time>
      </trkpt>
      <trkpt lat="43.4789" lon="1.20288">
        <ele>212</ele>
        <time>2019-09-23T10:10:56+02:00</time>
      </trkpt>
      <trkpt lat="43.47896" lon="1.20276">
        <ele>210</ele>
        <time>2019-09-23T10:11:02+02:00</time>
      </trkpt>
      <trkpt lat="43.47901" lon="1.20265">
        <ele>211</ele>
        <time>2019-09-23T10:11:07+02:00</time>
      </trkpt>
      <trkpt lat="43.47904" lon="1.20253">
        <ele>212</ele>
        <time>2019-09-23T10:11:12+02:00</time>
      </trkpt>
      <trkpt lat="43.47908" lon="1.20241">
        <ele>213</ele>
        <time>2019-09-23T10:11:18+02:00</time>
      </trkpt>
      <trkpt lat="43.47913" lon="1.2023">
        <ele>212</ele>
        <time>2019-09-23T10:11:23+02:00</time>
      </trkpt>
      <trkpt lat="43.47919" lon="1.20218">
        <ele>210</ele>
        <time>2019-09-23T10:11:29+02:00</time>
      </trkpt>
      <trkpt lat="43.47922" lon="1.20205">
        <ele>209</ele>
        <time>2019-09-23T10:11:35+02:00</time>
      </trkpt>
      <trkpt lat="43.47925" lon="1.20191">
        <ele>208</ele>
        <time>2019-09-23T10:11:41+02:00</time>
      </trkpt>
      <trkpt lat="43.47928" lon="1.20174">
        <ele>206</ele>
        <time>2019-09-23T10:11:49+02:00</time>
      </trkpt>
      <trkpt lat="43.47931" lon="1.2016">
        <ele>205</ele>
        <time>2019-09-23T10:11:55+02:00</time>
      </trkpt>
      <trkpt lat="43.47931" lon="1.20148">
        <ele>206</ele>
        <time>2019-09-23T10:12:01+02:00</time>
      </trkpt>
      <trkpt lat="43.47933" lon="1.20134">
        <ele>207</ele>
        <time>2019-09-23T10:12:06+02:00</time>
      </trkpt>
      <trkpt lat="43.47931" lon="1.20121">
        <ele>207</ele>
        <time>2019-09-23T10:12:12+02:00</time>
      </trkpt>
      <trkpt lat="43.47931" lon="1.20106">
        <ele>208</ele>
        <time>2019-09-23T10:12:18+02:00</time>
      </trkpt>
      <trkpt lat="43.4793" lon="1.20093">
        <ele>209</ele>
        <time>2019-09-23T10:12:23+02:00</time>
      </trkpt>
      <trkpt lat="43.47931" lon="1.2008">
        <ele>210</ele>
        <time>2019-09-23T10:12:29+02:00</time>
      </trkpt>
      <trkpt lat="43.47933" lon="1.20067">
        <ele>211</ele>
        <time>2019-09-23T10:12:35+02:00</time>
      </trkpt>
      <trkpt lat="43.47934" lon="1.20054">
        <ele>211</ele>
        <time>2019-09-23T10:12:41+02:00</time>
      </trkpt>
      <trkpt lat="43.47937" lon="1.20041">
        <ele>212</ele>
        <time>2019-09-23T10:12:47+02:00</time>
      </trkpt>
      <trkpt lat="43.47936" lon="1.20026">
        <ele>211</ele>
        <time>2019-09-23T10:12:54+02:00</time>
      </trkpt>
      <trkpt lat="43.47937" lon="1.20013">
        <ele>212</ele>
        <time>2019-09-23T10:12:59+02:00</time>
      </trkpt>
      <trkpt lat="43.47937" lon="1.2">
        <ele>212</ele>
        <time>2019-09-23T10:13:05+02:00</time>
      </trkpt>
      <trkpt lat="43.4794" lon="1.19986">
        <ele>211</ele>
        <time>2019-09-23T10:13:11+02:00</time>
      </trkpt>
      <trkpt lat="43.47941" lon="1.19973">
        <ele>211</ele>
        <time>2019-09-23T10:13:17+02:00</time>
      </trkpt>
      <trkpt lat="43.47944" lon="1.1996">
        <ele>211</ele>
        <time>2019-09-23T10:13:22+02:00</time>
      </trkpt>
      <trkpt lat="43.47948" lon="1.19947">
        <ele>212</ele>
        <time>2019-09-23T10:13:28+02:00</time>
      </trkpt>
      <trkpt lat="43.47954" lon="1.19936">
        <ele>213</ele>
        <time>2019-09-23T10:13:34+02:00</time>
      </trkpt>
      <trkpt lat="43.47962" lon="1.19928">
        <ele>213</ele>
        <time>2019-09-23T10:13:40+02:00</time>
      </trkpt>
      <trkpt lat="43.4797" lon="1.1992">
        <ele>213</ele>
        <time>2019-09-23T10:13:45+02:00</time>
      </trkpt>
      <trkpt lat="43.47978" lon="1.19913">
        <ele>214</ele>
        <time>2019-09-23T10:13:51+02:00</time>
      </trkpt>
      <trkpt lat="43.47987" lon="1.19905">
        <ele>214</ele>
        <time>2019-09-23T10:13:57+02:00</time>
      </trkpt>
      <trkpt lat="43.47996" lon="1.19897">
        <ele>215</ele>
        <time>2019-09-23T10:14:03+02:00</time>
      </trkpt>
      <trkpt lat="43.48004" lon="1.19892">
        <ele>213</ele>
        <time>2019-09-23T10:14:09+02:00</time>
      </trkpt>
      <trkpt lat="43.48012" lon="1.19883">
        <ele>215</ele>
        <time>2019-09-23T10:14:14+02:00</time>
      </trkpt>
      <trkpt lat="43.48022" lon="1.19879">
        <ele>212</ele>
        <time>2019-09-23T10:14:20+02:00</time>
      </trkpt>
      <trkpt lat="43.48032" lon="1.19877">
        <ele>210</ele>
        <time>2019-09-23T10:14:26+02:00</time>
      </trkpt>
      <trkpt lat="43.48041" lon="1.19878">
        <ele>208</ele>
        <time>2019-09-23T10:14:32+02:00</time>
      </trkpt>
      <trkpt lat="43.48051" lon="1.19877">
        <ele>206</ele>
        <time>2019-09-23T10:14:37+02:00</time>
      </trkpt>
      <trkpt lat="43.48061" lon="1.19875">
        <ele>204</ele>
        <time>2019-09-23T10:14:43+02:00</time>
      </trkpt>
      <trkpt lat="43.48071" lon="1.19873">
        <ele>202</ele>
        <time>2019-09-23T10:14:49+02:00</time>
      </trkpt>
      <trkpt lat="43.4808" lon="1.19874">
        <ele>203</ele>
        <time>2019-09-23T10:14:54+02:00</time>
      </trkpt>
      <trkpt lat="43.48089" lon="1.19875">
        <ele>202</ele>
        <time>2019-09-23T10:15:01+02:00</time>
      </trkpt>
      <trkpt lat="43.48098" lon="1.19874">
        <ele>205</ele>
        <time>2019-09-23T10:15:06+02:00</time>
      </trkpt>
      <trkpt lat="43.48107" lon="1.19871">
        <ele>206</ele>
        <time>2019-09-23T10:15:12+02:00</time>
      </trkpt>
      <trkpt lat="43.48117" lon="1.1987">
        <ele>207</ele>
        <time>2019-09-23T10:15:19+02:00</time>
      </trkpt>
      <trkpt lat="43.48126" lon="1.19869">
        <ele>208</ele>
        <time>2019-09-23T10:15:23+02:00</time>
      </trkpt>
      <trkpt lat="43.48136" lon="1.19866">
        <ele>209</ele>
        <time>2019-09-23T10:15:29+02:00</time>
      </trkpt>
      <trkpt lat="43.48146" lon="1.19865">
        <ele>209</ele>
        <time>2019-09-23T10:15:34+02:00</time>
      </trkpt>
      <trkpt lat="43.48156" lon="1.19862">
        <ele>209</ele>
        <time>2019-09-23T10:15:40+02:00</time>
      </trkpt>
      <trkpt lat="43.48165" lon="1.19859">
        <ele>208</ele>
        <time>2019-09-23T10:15:46+02:00</time>
      </trkpt>
      <trkpt lat="43.48174" lon="1.19856">
        <ele>207</ele>
        <time>2019-09-23T10:15:52+02:00</time>
      </trkpt>
      <trkpt lat="43.48184" lon="1.19855">
        <ele>206</ele>
        <time>2019-09-23T10:15:57+02:00</time>
      </trkpt>
      <trkpt lat="43.48193" lon="1.19854">
        <ele>205</ele>
        <time>2019-09-23T10:16:03+02:00</time>
      </trkpt>
      <trkpt lat="43.48203" lon="1.1985">
        <ele>206</ele>
        <time>2019-09-23T10:17:22+02:00</time>
      </trkpt>
      <trkpt lat="43.48213" lon="1.19848">
        <ele>206</ele>
        <time>2019-09-23T10:17:27+02:00</time>
      </trkpt>
      <trkpt lat="43.48223" lon="1.19845">
        <ele>205</ele>
        <time>2019-09-23T10:17:32+02:00</time>
      </trkpt>
      <trkpt lat="43.48232" lon="1.19844">
        <ele>204</ele>
        <time>2019-09-23T10:17:37+02:00</time>
      </trkpt>
      <trkpt lat="43.48241" lon="1.19841">
        <ele>203</ele>
        <time>2019-09-23T10:17:42+02:00</time>
      </trkpt>
      <trkpt lat="43.48251" lon="1.19837">
        <ele>201</ele>
        <time>2019-09-23T10:17:49+02:00</time>
      </trkpt>
      <trkpt lat="43.48261" lon="1.19835">
        <ele>202</ele>
        <time>2019-09-23T10:17:55+02:00</time>
      </trkpt>
      <trkpt lat="43.4827" lon="1.19834">
        <ele>201</ele>
        <time>2019-09-23T10:18:02+02:00</time>
      </trkpt>
      <trkpt lat="43.4828" lon="1.19832">
        <ele>201</ele>
        <time>2019-09-23T10:18:09+02:00</time>
      </trkpt>
      <trkpt lat="43.4829" lon="1.19832">
        <ele>199</ele>
        <time>2019-09-23T10:18:16+02:00</time>
      </trkpt>
      <trkpt lat="43.48292" lon="1.19846">
        <ele>196</ele>
        <time>2019-09-23T10:18:26+02:00</time>
      </trkpt>
      <trkpt lat="43.48298" lon="1.19856">
        <ele>196</ele>
        <time>2019-09-23T10:18:33+02:00</time>
      </trkpt>
      <trkpt lat="43.48307" lon="1.19861">
        <ele>197</ele>
        <time>2019-09-23T10:18:41+02:00</time>
      </trkpt>
      <trkpt lat="43.48315" lon="1.19869">
        <ele>195</ele>
        <time>2019-09-23T10:19:48+02:00</time>
      </trkpt>
      <trkpt lat="43.48321" lon="1.19878">
        <ele>194</ele>
        <time>2019-09-23T10:19:55+02:00</time>
      </trkpt>
      <trkpt lat="43.4833" lon="1.19885">
        <ele>194</ele>
        <time>2019-09-23T10:20:02+02:00</time>
      </trkpt>
      <trkpt lat="43.48337" lon="1.19895">
        <ele>195</ele>
        <time>2019-09-23T10:20:09+02:00</time>
      </trkpt>
      <trkpt lat="43.48345" lon="1.19903">
        <ele>197</ele>
        <time>2019-09-23T10:20:17+02:00</time>
      </trkpt>
      <trkpt lat="43.48353" lon="1.19909">
        <ele>200</ele>
        <time>2019-09-23T10:20:23+02:00</time>
      </trkpt>
      <trkpt lat="43.4836" lon="1.19917">
        <ele>202</ele>
        <time>2019-09-23T10:20:28+02:00</time>
      </trkpt>
      <trkpt lat="43.48363" lon="1.1993">
        <ele>205</ele>
        <time>2019-09-23T10:20:35+02:00</time>
      </trkpt>
      <trkpt lat="43.4837" lon="1.19938">
        <ele>205</ele>
        <time>2019-09-23T10:20:40+02:00</time>
      </trkpt>
      <trkpt lat="43.48378" lon="1.19948">
        <ele>204</ele>
        <time>2019-09-23T10:20:46+02:00</time>
      </trkpt>
      <trkpt lat="43.48386" lon="1.19956">
        <ele>205</ele>
        <time>2019-09-23T10:20:52+02:00</time>
      </trkpt>
      <trkpt lat="43.48392" lon="1.19965">
        <ele>204</ele>
        <time>2019-09-23T10:20:57+02:00</time>
      </trkpt>
      <trkpt lat="43.48397" lon="1.19977">
        <ele>202</ele>
        <time>2019-09-23T10:21:03+02:00</time>
      </trkpt>
      <trkpt lat="43.48405" lon="1.19986">
        <ele>201</ele>
        <time>2019-09-23T10:21:08+02:00</time>
      </trkpt>
      <trkpt lat="43.48412" lon="1.19994">
        <ele>200</ele>
        <time>2019-09-23T10:21:13+02:00</time>
      </trkpt>
      <trkpt lat="43.48417" lon="1.20006">
        <ele>199</ele>
        <time>2019-09-23T10:21:19+02:00</time>
      </trkpt>
      <trkpt lat="43.48423" lon="1.20016">
        <ele>197</ele>
        <time>2019-09-23T10:21:22+02:00</time>
      </trkpt>
      <trkpt lat="43.48429" lon="1.20027">
        <ele>195</ele>
        <time>2019-09-23T10:21:27+02:00</time>
      </trkpt>
      <trkpt lat="43.48432" lon="1.2004">
        <ele>194</ele>
        <time>2019-09-23T10:21:33+02:00</time>
      </trkpt>
      <trkpt lat="43.48436" lon="1.20053">
        <ele>193</ele>
        <time>2019-09-23T10:21:38+02:00</time>
      </trkpt>
      <trkpt lat="43.4844" lon="1.20065">
        <ele>192</ele>
        <time>2019-09-23T10:21:43+02:00</time>
      </trkpt>
      <trkpt lat="43.48443" lon="1.20076">
        <ele>190</ele>
        <time>2019-09-23T10:21:49+02:00</time>
      </trkpt>
      <trkpt lat="43.48448" lon="1.20089">
        <ele>190</ele>
        <time>2019-09-23T10:21:55+02:00</time>
      </trkpt>
      <trkpt lat="43.48451" lon="1.20101">
        <ele>189</ele>
        <time>2019-09-23T10:22:01+02:00</time>
      </trkpt>
      <trkpt lat="43.48454" lon="1.20115">
        <ele>187</ele>
        <time>2019-09-23T10:22:07+02:00</time>
      </trkpt>
      <trkpt lat="43.48458" lon="1.20127">
        <ele>186</ele>
        <time>2019-09-23T10:22:13+02:00</time>
      </trkpt>
      <trkpt lat="43.48457" lon="1.20141">
        <ele>186</ele>
        <time>2019-09-23T10:22:19+02:00</time>
      </trkpt>
      <trkpt lat="43.48462" lon="1.20153">
        <ele>186</ele>
        <time>2019-09-23T10:22:24+02:00</time>
      </trkpt>
      <trkpt lat="43.48463" lon="1.20166">
        <ele>185</ele>
        <time>2019-09-23T10:22:30+02:00</time>
      </trkpt>
      <trkpt lat="43.48465" lon="1.20178">
        <ele>185</ele>
        <time>2019-09-23T10:22:37+02:00</time>
      </trkpt>
      <trkpt lat="43.48464" lon="1.20192">
        <ele>183</ele>
        <time>2019-09-23T10:22:43+02:00</time>
      </trkpt>
      <trkpt lat="43.48467" lon="1.20204">
        <ele>182</ele>
        <time>2019-09-23T10:22:48+02:00</time>
      </trkpt>
      <trkpt lat="43.48468" lon="1.20217">
        <ele>180</ele>
        <time>2019-09-23T10:22:55+02:00</time>
      </trkpt>
      <trkpt lat="43.48472" lon="1.20229">
        <ele>181</ele>
        <time>2019-09-23T10:23:00+02:00</time>
      </trkpt>
      <trkpt lat="43.48469" lon="1.20243">
        <ele>180</ele>
        <time>2019-09-23T10:23:05+02:00</time>
      </trkpt>
      <trkpt lat="43.48468" lon="1.20256">
        <ele>179</ele>
        <time>2019-09-23T10:23:10+02:00</time>
      </trkpt>
      <trkpt lat="43.48468" lon="1.2027">
        <ele>181</ele>
        <time>2019-09-23T10:23:16+02:00</time>
      </trkpt>
      <trkpt lat="43.48473" lon="1.20282">
        <ele>183</ele>
        <time>2019-09-23T10:23:21+02:00</time>
      </trkpt>
      <trkpt lat="43.48477" lon="1.20296">
        <ele>184</ele>
        <time>2019-09-23T10:23:27+02:00</time>
      </trkpt>
      <trkpt lat="43.48476" lon="1.20309">
        <ele>184</ele>
        <time>2019-09-23T10:23:32+02:00</time>
      </trkpt>
      <trkpt lat="43.48477" lon="1.20322">
        <ele>183</ele>
        <time>2019-09-23T10:23:37+02:00</time>
      </trkpt>
      <trkpt lat="43.48481" lon="1.20334">
        <ele>181</ele>
        <time>2019-09-23T10:23:44+02:00</time>
      </trkpt>
      <trkpt lat="43.48485" lon="1.20346">
        <ele>180</ele>
        <time>2019-09-23T10:23:50+02:00</time>
      </trkpt>
      <trkpt lat="43.48484" lon="1.20361">
        <ele>180</ele>
        <time>2019-09-23T10:23:54+02:00</time>
      </trkpt>
      <trkpt lat="43.48488" lon="1.20372">
        <ele>180</ele>
        <time>2019-09-23T10:23:59+02:00</time>
      </trkpt>
      <trkpt lat="43.48491" lon="1.20385">
        <ele>180</ele>
        <time>2019-09-23T10:24:05+02:00</time>
      </trkpt>
      <trkpt lat="43.48493" lon="1.20399">
        <ele>182</ele>
        <time>2019-09-23T10:24:10+02:00</time>
      </trkpt>
      <trkpt lat="43.48496" lon="1.20412">
        <ele>183</ele>
        <time>2019-09-23T10:24:16+02:00</time>
      </trkpt>
      <trkpt lat="43.48498" lon="1.2043">
        <ele>182</ele>
        <time>2019-09-23T10:24:25+02:00</time>
      </trkpt>
      <trkpt lat="43.48505" lon="1.2044">
        <ele>182</ele>
        <time>2019-09-23T10:24:32+02:00</time>
      </trkpt>
      <trkpt lat="43.48511" lon="1.2045">
        <ele>181</ele>
        <time>2019-09-23T10:24:42+02:00</time>
      </trkpt>
      <trkpt lat="43.48515" lon="1.20461">
        <ele>180</ele>
        <time>2019-09-23T10:24:48+02:00</time>
      </trkpt>
      <trkpt lat="43.48519" lon="1.20474">
        <ele>179</ele>
        <time>2019-09-23T10:24:54+02:00</time>
      </trkpt>
      <trkpt lat="43.48525" lon="1.20487">
        <ele>179</ele>
        <time>2019-09-23T10:25:00+02:00</time>
      </trkpt>
      <trkpt lat="43.48529" lon="1.20499">
        <ele>181</ele>
        <time>2019-09-23T10:25:06+02:00</time>
      </trkpt>
      <trkpt lat="43.48535" lon="1.20508">
        <ele>183</ele>
        <time>2019-09-23T10:25:33+02:00</time>
      </trkpt>
      <trkpt lat="43.4854" lon="1.20521">
        <ele>183</ele>
        <time>2019-09-23T10:25:39+02:00</time>
      </trkpt>
      <trkpt lat="43.48545" lon="1.20533">
        <ele>185</ele>
        <time>2019-09-23T10:25:46+02:00</time>
      </trkpt>
      <trkpt lat="43.4855" lon="1.20545">
        <ele>185</ele>
        <time>2019-09-23T10:25:52+02:00</time>
      </trkpt>
      <trkpt lat="43.48552" lon="1.20557">
        <ele>185</ele>
        <time>2019-09-23T10:25:58+02:00</time>
      </trkpt>
      <trkpt lat="43.48555" lon="1.20571">
        <ele>185</ele>
        <time>2019-09-23T10:26:05+02:00</time>
      </trkpt>
      <trkpt lat="43.48557" lon="1.20586">
        <ele>186</ele>
        <time>2019-09-23T10:26:11+02:00</time>
      </trkpt>
      <trkpt lat="43.4856" lon="1.20598">
        <ele>185</ele>
        <time>2019-09-23T10:26:16+02:00</time>
      </trkpt>
      <trkpt lat="43.48563" lon="1.20611">
        <ele>185</ele>
        <time>2019-09-23T10:26:22+02:00</time>
      </trkpt>
      <trkpt lat="43.48565" lon="1.20626">
        <ele>186</ele>
        <time>2019-09-23T10:26:28+02:00</time>
      </trkpt>
      <trkpt lat="43.48565" lon="1.20638">
        <ele>185</ele>
        <time>2019-09-23T10:26:34+02:00</time>
      </trkpt>
      <trkpt lat="43.48565" lon="1.20652">
        <ele>184</ele>
        <time>2019-09-23T10:26:40+02:00</time>
      </trkpt>
      <trkpt lat="43.48565" lon="1.20666">
        <ele>184</ele>
        <time>2019-09-23T10:26:46+02:00</time>
      </trkpt>
      <trkpt lat="43.48565" lon="1.20679">
        <ele>183</ele>
        <time>2019-09-23T10:26:52+02:00</time>
      </trkpt>
      <trkpt lat="43.48565" lon="1.20692">
        <ele>183</ele>
        <time>2019-09-23T10:26:57+02:00</time>
      </trkpt>
      <trkpt lat="43.48568" lon="1.20704">
        <ele>181</ele>
        <time>2019-09-23T10:27:03+02:00</time>
      </trkpt>
      <trkpt lat="43.4857" lon="1.20717">
        <ele>181</ele>
        <time>2019-09-23T10:27:08+02:00</time>
      </trkpt>
      <trkpt lat="43.48573" lon="1.20729">
        <ele>182</ele>
        <time>2019-09-23T10:27:14+02:00</time>
      </trkpt>
      <trkpt lat="43.48575" lon="1.20744">
        <ele>181</ele>
        <time>2019-09-23T10:27:20+02:00</time>
      </trkpt>
      <trkpt lat="43.4858" lon="1.20755">
        <ele>183</ele>
        <time>2019-09-23T10:27:26+02:00</time>
      </trkpt>
      <trkpt lat="43.48584" lon="1.20768">
        <ele>182</ele>
        <time>2019-09-23T10:27:32+02:00</time>
      </trkpt>
      <trkpt lat="43.48587" lon="1.20781">
        <ele>182</ele>
        <time>2019-09-23T10:27:38+02:00</time>
      </trkpt>
      <trkpt lat="43.48591" lon="1.20793">
        <ele>182</ele>
        <time>2019-09-23T10:27:45+02:00</time>
      </trkpt>
      <trkpt lat="43.48597" lon="1.20805">
        <ele>182</ele>
        <time>2019-09-23T10:27:51+02:00</time>
      </trkpt>
      <trkpt lat="43.48599" lon="1.20818">
        <ele>182</ele>
        <time>2019-09-23T10:27:57+02:00</time>
      </trkpt>
      <trkpt lat="43.48603" lon="1.2083">
        <ele>181</ele>
        <time>2019-09-23T10:28:02+02:00</time>
      </trkpt>
      <trkpt lat="43.48606" lon="1.20843">
        <ele>180</ele>
        <time>2019-09-23T10:28:08+02:00</time>
      </trkpt>
      <trkpt lat="43.48607" lon="1.20859">
        <ele>180</ele>
        <time>2019-09-23T10:28:14+02:00</time>
      </trkpt>
      <trkpt lat="43.48612" lon="1.20869">
        <ele>179</ele>
        <time>2019-09-23T10:28:19+02:00</time>
      </trkpt>
      <trkpt lat="43.48615" lon="1.20884">
        <ele>179</ele>
        <time>2019-09-23T10:28:24+02:00</time>
      </trkpt>
      <trkpt lat="43.48618" lon="1.20896">
        <ele>178</ele>
        <time>2019-09-23T10:28:31+02:00</time>
      </trkpt>
      <trkpt lat="43.48619" lon="1.20909">
        <ele>179</ele>
        <time>2019-09-23T10:28:36+02:00</time>
      </trkpt>
      <trkpt lat="43.4862" lon="1.20921">
        <ele>181</ele>
        <time>2019-09-23T10:28:42+02:00</time>
      </trkpt>
      <trkpt lat="43.48626" lon="1.20932">
        <ele>181</ele>
        <time>2019-09-23T10:28:47+02:00</time>
      </trkpt>
      <trkpt lat="43.4863" lon="1.20944">
        <ele>181</ele>
        <time>2019-09-23T10:28:53+02:00</time>
      </trkpt>
      <trkpt lat="43.48627" lon="1.20957">
        <ele>183</ele>
        <time>2019-09-23T10:28:58+02:00</time>
      </trkpt>
      <trkpt lat="43.48624" lon="1.2097">
        <ele>185</ele>
        <time>2019-09-23T10:29:04+02:00</time>
      </trkpt>
      <trkpt lat="43.48624" lon="1.20984">
        <ele>184</ele>
        <time>2019-09-23T10:29:10+02:00</time>
      </trkpt>
      <trkpt lat="43.48623" lon="1.20997">
        <ele>184</ele>
        <time>2019-09-23T10:29:16+02:00</time>
      </trkpt>
      <trkpt lat="43.48626" lon="1.21009">
        <ele>185</ele>
        <time>2019-09-23T10:29:22+02:00</time>
      </trkpt>
      <trkpt lat="43.48628" lon="1.21022">
        <ele>184</ele>
        <time>2019-09-23T10:29:28+02:00</time>
      </trkpt>
      <trkpt lat="43.48625" lon="1.21036">
        <ele>184</ele>
        <time>2019-09-23T10:29:33+02:00</time>
      </trkpt>
      <trkpt lat="43.48626" lon="1.21048">
        <ele>185</ele>
        <time>2019-09-23T10:29:39+02:00</time>
      </trkpt>
      <trkpt lat="43.48629" lon="1.21061">
        <ele>185</ele>
        <time>2019-09-23T10:29:46+02:00</time>
      </trkpt>
      <trkpt lat="43.48629" lon="1.21074">
        <ele>185</ele>
        <time>2019-09-23T10:29:51+02:00</time>
      </trkpt>
      <trkpt lat="43.4863" lon="1.21087">
        <ele>186</ele>
        <time>2019-09-23T10:29:58+02:00</time>
      </trkpt>
      <trkpt lat="43.48633" lon="1.211">
        <ele>187</ele>
        <time>2019-09-23T10:30:03+02:00</time>
      </trkpt>
      <trkpt lat="43.48632" lon="1.21114">
        <ele>186</ele>
        <time>2019-09-23T10:30:08+02:00</time>
      </trkpt>
      <trkpt lat="43.48634" lon="1.21127">
        <ele>183</ele>
        <time>2019-09-23T10:30:14+02:00</time>
      </trkpt>
      <trkpt lat="43.48634" lon="1.21141">
        <ele>182</ele>
        <time>2019-09-23T10:30:19+02:00</time>
      </trkpt>
      <trkpt lat="43.48636" lon="1.21154">
        <ele>180</ele>
        <time>2019-09-23T10:30:25+02:00</time>
      </trkpt>
      <trkpt lat="43.48636" lon="1.21167">
        <ele>179</ele>
        <time>2019-09-23T10:30:30+02:00</time>
      </trkpt>
      <trkpt lat="43.48638" lon="1.2118">
        <ele>179</ele>
        <time>2019-09-23T10:30:37+02:00</time>
      </trkpt>
      <trkpt lat="43.48637" lon="1.21194">
        <ele>179</ele>
        <time>2019-09-23T10:30:43+02:00</time>
      </trkpt>
      <trkpt lat="43.4864" lon="1.21206">
        <ele>180</ele>
        <time>2019-09-23T10:30:49+02:00</time>
      </trkpt>
      <trkpt lat="43.48643" lon="1.21218">
        <ele>185</ele>
        <time>2019-09-23T10:30:59+02:00</time>
      </trkpt>
      <trkpt lat="43.48643" lon="1.21232">
        <ele>185</ele>
        <time>2019-09-23T10:31:05+02:00</time>
      </trkpt>
      <trkpt lat="43.4864" lon="1.21246">
        <ele>184</ele>
        <time>2019-09-23T10:31:12+02:00</time>
      </trkpt>
      <trkpt lat="43.48641" lon="1.21259">
        <ele>182</ele>
        <time>2019-09-23T10:31:18+02:00</time>
      </trkpt>
      <trkpt lat="43.48643" lon="1.21272">
        <ele>180</ele>
        <time>2019-09-23T10:31:23+02:00</time>
      </trkpt>
      <trkpt lat="43.48643" lon="1.21286">
        <ele>178</ele>
        <time>2019-09-23T10:31:29+02:00</time>
      </trkpt>
      <trkpt lat="43.48643" lon="1.21299">
        <ele>177</ele>
        <time>2019-09-23T10:31:34+02:00</time>
      </trkpt>
      <trkpt lat="43.48644" lon="1.21312">
        <ele>175</ele>
        <time>2019-09-23T10:31:39+02:00</time>
      </trkpt>
      <trkpt lat="43.48645" lon="1.21326">
        <ele>175</ele>
        <time>2019-09-23T10:31:43+02:00</time>
      </trkpt>
      <trkpt lat="43.48647" lon="1.21339">
        <ele>176</ele>
        <time>2019-09-23T10:31:47+02:00</time>
      </trkpt>
      <trkpt lat="43.48647" lon="1.21352">
        <ele>184</ele>
        <time>2019-09-23T10:31:55+02:00</time>
      </trkpt>
      <trkpt lat="43.48649" lon="1.21365">
        <ele>186</ele>
        <time>2019-09-23T10:32:02+02:00</time>
      </trkpt>
      <trkpt lat="43.48645" lon="1.21378">
        <ele>187</ele>
        <time>2019-09-23T10:32:08+02:00</time>
      </trkpt>
      <trkpt lat="43.48643" lon="1.21391">
        <ele>188</ele>
        <time>2019-09-23T10:32:14+02:00</time>
      </trkpt>
      <trkpt lat="43.48645" lon="1.21405">
        <ele>187</ele>
        <time>2019-09-23T10:32:22+02:00</time>
      </trkpt>
      <trkpt lat="43.48642" lon="1.21419">
        <ele>186</ele>
        <time>2019-09-23T10:32:28+02:00</time>
      </trkpt>
      <trkpt lat="43.48636" lon="1.21429">
        <ele>185</ele>
        <time>2019-09-23T10:32:33+02:00</time>
      </trkpt>
      <trkpt lat="43.48631" lon="1.21442">
        <ele>184</ele>
        <time>2019-09-23T10:32:39+02:00</time>
      </trkpt>
      <trkpt lat="43.4863" lon="1.21455">
        <ele>182</ele>
        <time>2019-09-23T10:32:46+02:00</time>
      </trkpt>
      <trkpt lat="43.48624" lon="1.21466">
        <ele>181</ele>
        <time>2019-09-23T10:32:51+02:00</time>
      </trkpt>
      <trkpt lat="43.4862" lon="1.21477">
        <ele>177</ele>
        <time>2019-09-23T10:32:58+02:00</time>
      </trkpt>
      <trkpt lat="43.48615" lon="1.21488">
        <ele>177</ele>
        <time>2019-09-23T10:33:04+02:00</time>
      </trkpt>
      <trkpt lat="43.4861" lon="1.21498">
        <ele>177</ele>
        <time>2019-09-23T10:33:09+02:00</time>
      </trkpt>
      <trkpt lat="43.48605" lon="1.21511">
        <ele>178</ele>
        <time>2019-09-23T10:33:15+02:00</time>
      </trkpt>
      <trkpt lat="43.486" lon="1.21523">
        <ele>180</ele>
        <time>2019-09-23T10:33:21+02:00</time>
      </trkpt>
      <trkpt lat="43.48595" lon="1.21534">
        <ele>181</ele>
        <time>2019-09-23T10:33:27+02:00</time>
      </trkpt>
      <trkpt lat="43.4859" lon="1.21546">
        <ele>181</ele>
        <time>2019-09-23T10:33:33+02:00</time>
      </trkpt>
      <trkpt lat="43.48585" lon="1.21556">
        <ele>180</ele>
        <time>2019-09-23T10:33:39+02:00</time>
      </trkpt>
      <trkpt lat="43.48579" lon="1.21566">
        <ele>179</ele>
        <time>2019-09-23T10:33:45+02:00</time>
      </trkpt>
      <trkpt lat="43.48574" lon="1.21578">
        <ele>178</ele>
        <time>2019-09-23T10:33:51+02:00</time>
      </trkpt>
      <trkpt lat="43.48569" lon="1.2159">
        <ele>178</ele>
        <time>2019-09-23T10:33:57+02:00</time>
      </trkpt>
      <trkpt lat="43.48561" lon="1.21598">
        <ele>177</ele>
        <time>2019-09-23T10:34:03+02:00</time>
      </trkpt>
      <trkpt lat="43.48557" lon="1.2161">
        <ele>177</ele>
        <time>2019-09-23T10:34:08+02:00</time>
      </trkpt>
      <trkpt lat="43.48551" lon="1.21619">
        <ele>177</ele>
        <time>2019-09-23T10:34:14+02:00</time>
      </trkpt>
      <trkpt lat="43.48546" lon="1.2163">
        <ele>176</ele>
        <time>2019-09-23T10:34:19+02:00</time>
      </trkpt>
      <trkpt lat="43.48543" lon="1.21643">
        <ele>175</ele>
        <time>2019-09-23T10:34:25+02:00</time>
      </trkpt>
      <trkpt lat="43.48536" lon="1.21655">
        <ele>176</ele>
        <time>2019-09-23T10:34:31+02:00</time>
      </trkpt>
      <trkpt lat="43.4853" lon="1.21664">
        <ele>177</ele>
        <time>2019-09-23T10:34:37+02:00</time>
      </trkpt>
      <trkpt lat="43.48524" lon="1.21675">
        <ele>178</ele>
        <time>2019-09-23T10:34:47+02:00</time>
      </trkpt>
      <trkpt lat="43.48523" lon="1.21688">
        <ele>176</ele>
        <time>2019-09-23T10:34:53+02:00</time>
      </trkpt>
      <trkpt lat="43.48519" lon="1.21702">
        <ele>175</ele>
        <time>2019-09-23T10:34:59+02:00</time>
      </trkpt>
      <trkpt lat="43.48516" lon="1.21716">
        <ele>176</ele>
        <time>2019-09-23T10:35:04+02:00</time>
      </trkpt>
      <trkpt lat="43.48517" lon="1.21729">
        <ele>176</ele>
        <time>2019-09-23T10:35:14+02:00</time>
      </trkpt>
      <trkpt lat="43.48516" lon="1.21742">
        <ele>176</ele>
        <time>2019-09-23T10:35:22+02:00</time>
      </trkpt>
      <trkpt lat="43.48515" lon="1.21756">
        <ele>178</ele>
        <time>2019-09-23T10:35:28+02:00</time>
      </trkpt>
      <trkpt lat="43.48515" lon="1.2177">
        <ele>179</ele>
        <time>2019-09-23T10:35:36+02:00</time>
      </trkpt>
      <trkpt lat="43.4851" lon="1.21781">
        <ele>179</ele>
        <time>2019-09-23T10:35:42+02:00</time>
      </trkpt>
      <trkpt lat="43.4851" lon="1.21795">
        <ele>178</ele>
        <time>2019-09-23T10:35:49+02:00</time>
      </trkpt>
      <trkpt lat="43.4851" lon="1.2181">
        <ele>177</ele>
        <time>2019-09-23T10:35:56+02:00</time>
      </trkpt>
      <trkpt lat="43.48508" lon="1.21822">
        <ele>177</ele>
        <time>2019-09-23T10:36:01+02:00</time>
      </trkpt>
      <trkpt lat="43.48505" lon="1.21834">
        <ele>178</ele>
        <time>2019-09-23T10:36:06+02:00</time>
      </trkpt>
      <trkpt lat="43.48503" lon="1.21848">
        <ele>179</ele>
        <time>2019-09-23T10:36:13+02:00</time>
      </trkpt>
      <trkpt lat="43.485" lon="1.21861">
        <ele>179</ele>
        <time>2019-09-23T10:36:20+02:00</time>
      </trkpt>
      <trkpt lat="43.48498" lon="1.21875">
        <ele>179</ele>
        <time>2019-09-23T10:36:27+02:00</time>
      </trkpt>
      <trkpt lat="43.485" lon="1.21889">
        <ele>176</ele>
        <time>2019-09-23T10:36:34+02:00</time>
      </trkpt>
      <trkpt lat="43.485" lon="1.21904">
        <ele>176</ele>
        <time>2019-09-23T10:36:40+02:00</time>
      </trkpt>
      <trkpt lat="43.485" lon="1.21917">
        <ele>175</ele>
        <time>2019-09-23T10:36:46+02:00</time>
      </trkpt>
      <trkpt lat="43.48501" lon="1.21931">
        <ele>175</ele>
        <time>2019-09-23T10:36:52+02:00</time>
      </trkpt>
      <trkpt lat="43.48495" lon="1.21943">
        <ele>178</ele>
        <time>2019-09-23T10:36:58+02:00</time>
      </trkpt>
      <trkpt lat="43.48493" lon="1.21956">
        <ele>181</ele>
        <time>2019-09-23T10:37:06+02:00</time>
      </trkpt>
      <trkpt lat="43.48488" lon="1.21969">
        <ele>183</ele>
        <time>2019-09-23T10:37:12+02:00</time>
      </trkpt>
      <trkpt lat="43.48486" lon="1.21982">
        <ele>184</ele>
        <time>2019-09-23T10:37:19+02:00</time>
      </trkpt>
      <trkpt lat="43.48487" lon="1.21997">
        <ele>184</ele>
        <time>2019-09-23T10:37:25+02:00</time>
      </trkpt>
      <trkpt lat="43.48487" lon="1.22009">
        <ele>183</ele>
        <time>2019-09-23T10:37:30+02:00</time>
      </trkpt>
      <trkpt lat="43.48486" lon="1.22022">
        <ele>182</ele>
        <time>2019-09-23T10:37:36+02:00</time>
      </trkpt>
      <trkpt lat="43.48484" lon="1.22035">
        <ele>180</ele>
        <time>2019-09-23T10:37:43+02:00</time>
      </trkpt>
      <trkpt lat="43.48482" lon="1.22048">
        <ele>179</ele>
        <time>2019-09-23T10:37:48+02:00</time>
      </trkpt>
      <trkpt lat="43.48481" lon="1.22062">
        <ele>180</ele>
        <time>2019-09-23T10:37:54+02:00</time>
      </trkpt>
      <trkpt lat="43.48477" lon="1.22074">
        <ele>180</ele>
        <time>2019-09-23T10:38:00+02:00</time>
      </trkpt>
      <trkpt lat="43.48472" lon="1.22087">
        <ele>178</ele>
        <time>2019-09-23T10:38:07+02:00</time>
      </trkpt>
      <trkpt lat="43.4847" lon="1.221">
        <ele>178</ele>
        <time>2019-09-23T10:38:13+02:00</time>
      </trkpt>
      <trkpt lat="43.48468" lon="1.22115">
        <ele>179</ele>
        <time>2019-09-23T10:38:20+02:00</time>
      </trkpt>
      <trkpt lat="43.48465" lon="1.22128">
        <ele>179</ele>
        <time>2019-09-23T10:38:25+02:00</time>
      </trkpt>
      <trkpt lat="43.48465" lon="1.2214">
        <ele>177</ele>
        <time>2019-09-23T10:38:32+02:00</time>
      </trkpt>
      <trkpt lat="43.48456" lon="1.22148">
        <ele>177</ele>
        <time>2019-09-23T10:38:38+02:00</time>
      </trkpt>
      <trkpt lat="43.48447" lon="1.22153">
        <ele>176</ele>
        <time>2019-09-23T10:38:44+02:00</time>
      </trkpt>
      <trkpt lat="43.48437" lon="1.22158">
        <ele>175</ele>
        <time>2019-09-23T10:38:50+02:00</time>
      </trkpt>
      <trkpt lat="43.48429" lon="1.22163">
        <ele>174</ele>
        <time>2019-09-23T10:38:57+02:00</time>
      </trkpt>
      <trkpt lat="43.4842" lon="1.22168">
        <ele>174</ele>
        <time>2019-09-23T10:39:02+02:00</time>
      </trkpt>
      <trkpt lat="43.48412" lon="1.22175">
        <ele>175</ele>
        <time>2019-09-23T10:39:07+02:00</time>
      </trkpt>
      <trkpt lat="43.48403" lon="1.22178">
        <ele>176</ele>
        <time>2019-09-23T10:39:13+02:00</time>
      </trkpt>
      <trkpt lat="43.48393" lon="1.22184">
        <ele>177</ele>
        <time>2019-09-23T10:39:19+02:00</time>
      </trkpt>
      <trkpt lat="43.48384" lon="1.22188">
        <ele>180</ele>
        <time>2019-09-23T10:39:25+02:00</time>
      </trkpt>
      <trkpt lat="43.48374" lon="1.2219">
        <ele>180</ele>
        <time>2019-09-23T10:39:36+02:00</time>
      </trkpt>
      <trkpt lat="43.48365" lon="1.22195">
        <ele>180</ele>
        <time>2019-09-23T10:39:42+02:00</time>
      </trkpt>
      <trkpt lat="43.48355" lon="1.22197">
        <ele>181</ele>
        <time>2019-09-23T10:39:48+02:00</time>
      </trkpt>
      <trkpt lat="43.48346" lon="1.22201">
        <ele>181</ele>
        <time>2019-09-23T10:39:55+02:00</time>
      </trkpt>
      <trkpt lat="43.48336" lon="1.22204">
        <ele>180</ele>
        <time>2019-09-23T10:40:01+02:00</time>
      </trkpt>
      <trkpt lat="43.48326" lon="1.22204">
        <ele>181</ele>
        <time>2019-09-23T10:40:07+02:00</time>
      </trkpt>
      <trkpt lat="43.48316" lon="1.22205">
        <ele>180</ele>
        <time>2019-09-23T10:40:14+02:00</time>
      </trkpt>
      <trkpt lat="43.48307" lon="1.22209">
        <ele>180</ele>
        <time>2019-09-23T10:40:20+02:00</time>
      </trkpt>
      <trkpt lat="43.48296" lon="1.2221">
        <ele>181</ele>
        <time>2019-09-23T10:40:26+02:00</time>
      </trkpt>
      <trkpt lat="43.48287" lon="1.22212">
        <ele>179</ele>
        <time>2019-09-23T10:40:33+02:00</time>
      </trkpt>
      <trkpt lat="43.48278" lon="1.22217">
        <ele>178</ele>
        <time>2019-09-23T10:40:39+02:00</time>
      </trkpt>
      <trkpt lat="43.48269" lon="1.22217">
        <ele>178</ele>
        <time>2019-09-23T10:40:43+02:00</time>
      </trkpt>
      <trkpt lat="43.48259" lon="1.22218">
        <ele>179</ele>
        <time>2019-09-23T10:40:48+02:00</time>
      </trkpt>
      <trkpt lat="43.48248" lon="1.2222">
        <ele>178</ele>
        <time>2019-09-23T10:40:58+02:00</time>
      </trkpt>
      <trkpt lat="43.48238" lon="1.2222">
        <ele>177</ele>
        <time>2019-09-23T10:41:02+02:00</time>
      </trkpt>
      <trkpt lat="43.48228" lon="1.2222">
        <ele>176</ele>
        <time>2019-09-23T10:41:08+02:00</time>
      </trkpt>
      <trkpt lat="43.48218" lon="1.22225">
        <ele>175</ele>
        <time>2019-09-23T10:41:15+02:00</time>
      </trkpt>
      <trkpt lat="43.48209" lon="1.22226">
        <ele>175</ele>
        <time>2019-09-23T10:41:20+02:00</time>
      </trkpt>
      <trkpt lat="43.48199" lon="1.22224">
        <ele>176</ele>
        <time>2019-09-23T10:41:25+02:00</time>
      </trkpt>
      <trkpt lat="43.4819" lon="1.22228">
        <ele>177</ele>
        <time>2019-09-23T10:41:33+02:00</time>
      </trkpt>
      <trkpt lat="43.48179" lon="1.22228">
        <ele>179</ele>
        <time>2019-09-23T10:41:39+02:00</time>
      </trkpt>
      <trkpt lat="43.48168" lon="1.22227">
        <ele>180</ele>
        <time>2019-09-23T10:41:45+02:00</time>
      </trkpt>
      <trkpt lat="43.48159" lon="1.22229">
        <ele>178</ele>
        <time>2019-09-23T10:41:51+02:00</time>
      </trkpt>
      <trkpt lat="43.4815" lon="1.2223">
        <ele>178</ele>
        <time>2019-09-23T10:41:57+02:00</time>
      </trkpt>
      <trkpt lat="43.4814" lon="1.2223">
        <ele>178</ele>
        <time>2019-09-23T10:42:03+02:00</time>
      </trkpt>
      <trkpt lat="43.4813" lon="1.2223">
        <ele>178</ele>
        <time>2019-09-23T10:42:10+02:00</time>
      </trkpt>
      <trkpt lat="43.4812" lon="1.22234">
        <ele>178</ele>
        <time>2019-09-23T10:42:17+02:00</time>
      </trkpt>
      <trkpt lat="43.4811" lon="1.22233">
        <ele>178</ele>
        <time>2019-09-23T10:42:22+02:00</time>
      </trkpt>
      <trkpt lat="43.481" lon="1.22235">
        <ele>179</ele>
        <time>2019-09-23T10:42:28+02:00</time>
      </trkpt>
      <trkpt lat="43.48091" lon="1.22238">
        <ele>179</ele>
        <time>2019-09-23T10:42:35+02:00</time>
      </trkpt>
      <trkpt lat="43.48081" lon="1.22241">
        <ele>179</ele>
        <time>2019-09-23T10:42:40+02:00</time>
      </trkpt>
      <trkpt lat="43.48071" lon="1.22241">
        <ele>179</ele>
        <time>2019-09-23T10:42:45+02:00</time>
      </trkpt>
      <trkpt lat="43.48062" lon="1.22244">
        <ele>179</ele>
        <time>2019-09-23T10:42:53+02:00</time>
      </trkpt>
      <trkpt lat="43.48052" lon="1.22248">
        <ele>179</ele>
        <time>2019-09-23T10:43:00+02:00</time>
      </trkpt>
      <trkpt lat="43.48044" lon="1.22252">
        <ele>179</ele>
        <time>2019-09-23T10:43:06+02:00</time>
      </trkpt>
      <trkpt lat="43.48035" lon="1.22257">
        <ele>178</ele>
        <time>2019-09-23T10:43:12+02:00</time>
      </trkpt>
      <trkpt lat="43.48026" lon="1.22264">
        <ele>178</ele>
        <time>2019-09-23T10:43:18+02:00</time>
      </trkpt>
      <trkpt lat="43.48017" lon="1.22267">
        <ele>177</ele>
        <time>2019-09-23T10:43:23+02:00</time>
      </trkpt>
      <trkpt lat="43.48009" lon="1.22275">
        <ele>176</ele>
        <time>2019-09-23T10:43:30+02:00</time>
      </trkpt>
      <trkpt lat="43.47999" lon="1.2228">
        <ele>176</ele>
        <time>2019-09-23T10:43:35+02:00</time>
      </trkpt>
      <trkpt lat="43.47989" lon="1.22284">
        <ele>178</ele>
        <time>2019-09-23T10:43:40+02:00</time>
      </trkpt>
      <trkpt lat="43.4798" lon="1.22287">
        <ele>176</ele>
        <time>2019-09-23T10:43:47+02:00</time>
      </trkpt>
      <trkpt lat="43.4797" lon="1.2229">
        <ele>176</ele>
        <time>2019-09-23T10:43:53+02:00</time>
      </trkpt>
      <trkpt lat="43.4796" lon="1.22289">
        <ele>176</ele>
        <time>2019-09-23T10:43:58+02:00</time>
      </trkpt>
      <trkpt lat="43.47951" lon="1.22292">
        <ele>177</ele>
        <time>2019-09-23T10:44:05+02:00</time>
      </trkpt>
      <trkpt lat="43.47942" lon="1.22292">
        <ele>177</ele>
        <time>2019-09-23T10:44:10+02:00</time>
      </trkpt>
      <trkpt lat="43.47932" lon="1.22295">
        <ele>178</ele>
        <time>2019-09-23T10:44:16+02:00</time>
      </trkpt>
      <trkpt lat="43.47923" lon="1.22297">
        <ele>178</ele>
        <time>2019-09-23T10:44:24+02:00</time>
      </trkpt>
      <trkpt lat="43.47913" lon="1.22298">
        <ele>178</ele>
        <time>2019-09-23T10:44:29+02:00</time>
      </trkpt>
      <trkpt lat="43.47903" lon="1.22295">
        <ele>178</ele>
        <time>2019-09-23T10:44:34+02:00</time>
      </trkpt>
      <trkpt lat="43.47894" lon="1.22297">
        <ele>178</ele>
        <time>2019-09-23T10:44:41+02:00</time>
      </trkpt>
      <trkpt lat="43.47885" lon="1.22297">
        <ele>177</ele>
        <time>2019-09-23T10:44:47+02:00</time>
      </trkpt>
      <trkpt lat="43.47876" lon="1.22295">
        <ele>176</ele>
        <time>2019-09-23T10:44:52+02:00</time>
      </trkpt>
      <trkpt lat="43.47866" lon="1.22294">
        <ele>175</ele>
        <time>2019-09-23T10:44:58+02:00</time>
      </trkpt>
      <trkpt lat="43.47856" lon="1.22292">
        <ele>174</ele>
        <time>2019-09-23T10:45:03+02:00</time>
      </trkpt>
      <trkpt lat="43.47846" lon="1.22293">
        <ele>175</ele>
        <time>2019-09-23T10:45:11+02:00</time>
      </trkpt>
      <trkpt lat="43.47835" lon="1.22292">
        <ele>176</ele>
        <time>2019-09-23T10:45:17+02:00</time>
      </trkpt>
      <trkpt lat="43.47825" lon="1.2229">
        <ele>178</ele>
        <time>2019-09-23T10:45:22+02:00</time>
      </trkpt>
      <trkpt lat="43.47816" lon="1.22288">
        <ele>179</ele>
        <time>2019-09-23T10:45:28+02:00</time>
      </trkpt>
      <trkpt lat="43.47806" lon="1.22289">
        <ele>182</ele>
        <time>2019-09-23T10:45:34+02:00</time>
      </trkpt>
      <trkpt lat="43.47796" lon="1.22289">
        <ele>184</ele>
        <time>2019-09-23T10:45:40+02:00</time>
      </trkpt>
      <trkpt lat="43.47786" lon="1.22289">
        <ele>184</ele>
        <time>2019-09-23T10:45:47+02:00</time>
      </trkpt>
      <trkpt lat="43.47776" lon="1.22288">
        <ele>183</ele>
        <time>2019-09-23T10:45:53+02:00</time>
      </trkpt>
      <trkpt lat="43.47767" lon="1.22289">
        <ele>181</ele>
        <time>2019-09-23T10:46:00+02:00</time>
      </trkpt>
      <trkpt lat="43.47756" lon="1.22289">
        <ele>179</ele>
        <time>2019-09-23T10:46:06+02:00</time>
      </trkpt>
      <trkpt lat="43.47747" lon="1.22286">
        <ele>179</ele>
        <time>2019-09-23T10:46:12+02:00</time>
      </trkpt>
      <trkpt lat="43.47738" lon="1.22285">
        <ele>178</ele>
        <time>2019-09-23T10:46:17+02:00</time>
      </trkpt>
      <trkpt lat="43.47729" lon="1.22282">
        <ele>177</ele>
        <time>2019-09-23T10:46:24+02:00</time>
      </trkpt>
      <trkpt lat="43.4772" lon="1.22279">
        <ele>177</ele>
        <time>2019-09-23T10:46:30+02:00</time>
      </trkpt>
      <trkpt lat="43.4771" lon="1.22276">
        <ele>177</ele>
        <time>2019-09-23T10:46:35+02:00</time>
      </trkpt>
      <trkpt lat="43.477" lon="1.22274">
        <ele>177</ele>
        <time>2019-09-23T10:46:43+02:00</time>
      </trkpt>
      <trkpt lat="43.4769" lon="1.22273">
        <ele>177</ele>
        <time>2019-09-23T10:46:49+02:00</time>
      </trkpt>
      <trkpt lat="43.4768" lon="1.2227">
        <ele>178</ele>
        <time>2019-09-23T10:46:54+02:00</time>
      </trkpt>
      <trkpt lat="43.4767" lon="1.22267">
        <ele>177</ele>
        <time>2019-09-23T10:47:00+02:00</time>
      </trkpt>
      <trkpt lat="43.47664" lon="1.22257">
        <ele>175</ele>
        <time>2019-09-23T10:47:08+02:00</time>
      </trkpt>
      <trkpt lat="43.47662" lon="1.22244">
        <ele>176</ele>
        <time>2019-09-23T10:47:13+02:00</time>
      </trkpt>
      <trkpt lat="43.47657" lon="1.22232">
        <ele>179</ele>
        <time>2019-09-23T10:47:19+02:00</time>
      </trkpt>
      <trkpt lat="43.47655" lon="1.22218">
        <ele>180</ele>
        <time>2019-09-23T10:47:26+02:00</time>
      </trkpt>
      <trkpt lat="43.47647" lon="1.2221">
        <ele>181</ele>
        <time>2019-09-23T10:47:32+02:00</time>
      </trkpt>
      <trkpt lat="43.47637" lon="1.22207">
        <ele>180</ele>
        <time>2019-09-23T10:47:39+02:00</time>
      </trkpt>
      <trkpt lat="43.47628" lon="1.22203">
        <ele>180</ele>
        <time>2019-09-23T10:47:45+02:00</time>
      </trkpt>
      <trkpt lat="43.47618" lon="1.22197">
        <ele>181</ele>
        <time>2019-09-23T10:47:53+02:00</time>
      </trkpt>
      <trkpt lat="43.47608" lon="1.22192">
        <ele>181</ele>
        <time>2019-09-23T10:47:59+02:00</time>
      </trkpt>
      <trkpt lat="43.47599" lon="1.2219">
        <ele>182</ele>
        <time>2019-09-23T10:48:06+02:00</time>
      </trkpt>
      <trkpt lat="43.47589" lon="1.22187">
        <ele>182</ele>
        <time>2019-09-23T10:48:11+02:00</time>
      </trkpt>
      <trkpt lat="43.47579" lon="1.22186">
        <ele>180</ele>
        <time>2019-09-23T10:48:19+02:00</time>
      </trkpt>
      <trkpt lat="43.47569" lon="1.22185">
        <ele>180</ele>
        <time>2019-09-23T10:48:24+02:00</time>
      </trkpt>
      <trkpt lat="43.4756" lon="1.22185">
        <ele>180</ele>
        <time>2019-09-23T10:48:29+02:00</time>
      </trkpt>
      <trkpt lat="43.4755" lon="1.22183">
        <ele>179</ele>
        <time>2019-09-23T10:48:35+02:00</time>
      </trkpt>
      <trkpt lat="43.47541" lon="1.22181">
        <ele>179</ele>
        <time>2019-09-23T10:48:41+02:00</time>
      </trkpt>
      <trkpt lat="43.47532" lon="1.22181">
        <ele>180</ele>
        <time>2019-09-23T10:48:47+02:00</time>
      </trkpt>
      <trkpt lat="43.47521" lon="1.22181">
        <ele>179</ele>
        <time>2019-09-23T10:48:53+02:00</time>
      </trkpt>
      <trkpt lat="43.47511" lon="1.2218">
        <ele>180</ele>
        <time>2019-09-23T10:48:58+02:00</time>
      </trkpt>
      <trkpt lat="43.47502" lon="1.22179">
        <ele>180</ele>
        <time>2019-09-23T10:49:04+02:00</time>
      </trkpt>
      <trkpt lat="43.47491" lon="1.22179">
        <ele>179</ele>
        <time>2019-09-23T10:49:10+02:00</time>
      </trkpt>
      <trkpt lat="43.47482" lon="1.22176">
        <ele>179</ele>
        <time>2019-09-23T10:49:16+02:00</time>
      </trkpt>
      <trkpt lat="43.47472" lon="1.22173">
        <ele>179</ele>
        <time>2019-09-23T10:49:23+02:00</time>
      </trkpt>
      <trkpt lat="43.47462" lon="1.2217">
        <ele>180</ele>
        <time>2019-09-23T10:49:28+02:00</time>
      </trkpt>
      <trkpt lat="43.47452" lon="1.22165">
        <ele>179</ele>
        <time>2019-09-23T10:49:34+02:00</time>
      </trkpt>
      <trkpt lat="43.47445" lon="1.22158">
        <ele>181</ele>
        <time>2019-09-23T10:49:47+02:00</time>
      </trkpt>
      <trkpt lat="43.47436" lon="1.22151">
        <ele>179</ele>
        <time>2019-09-23T10:49:56+02:00</time>
      </trkpt>
      <trkpt lat="43.47426" lon="1.22148">
        <ele>180</ele>
        <time>2019-09-23T10:50:03+02:00</time>
      </trkpt>
      <trkpt lat="43.47417" lon="1.22142">
        <ele>178</ele>
        <time>2019-09-23T10:50:10+02:00</time>
      </trkpt>
      <trkpt lat="43.47409" lon="1.22133">
        <ele>178</ele>
        <time>2019-09-23T10:50:16+02:00</time>
      </trkpt>
      <trkpt lat="43.47404" lon="1.22122">
        <ele>179</ele>
        <time>2019-09-23T10:50:22+02:00</time>
      </trkpt>
      <trkpt lat="43.47396" lon="1.22113">
        <ele>179</ele>
        <time>2019-09-23T10:50:29+02:00</time>
      </trkpt>
      <trkpt lat="43.47387" lon="1.22108">
        <ele>179</ele>
        <time>2019-09-23T10:50:35+02:00</time>
      </trkpt>
      <trkpt lat="43.47376" lon="1.22107">
        <ele>179</ele>
        <time>2019-09-23T10:50:41+02:00</time>
      </trkpt>
      <trkpt lat="43.47366" lon="1.22106">
        <ele>178</ele>
        <time>2019-09-23T10:50:48+02:00</time>
      </trkpt>
      <trkpt lat="43.47357" lon="1.221">
        <ele>178</ele>
        <time>2019-09-23T10:50:55+02:00</time>
      </trkpt>
      <trkpt lat="43.47348" lon="1.22092">
        <ele>178</ele>
        <time>2019-09-23T10:51:03+02:00</time>
      </trkpt>
      <trkpt lat="43.4734" lon="1.22084">
        <ele>178</ele>
        <time>2019-09-23T10:51:08+02:00</time>
      </trkpt>
      <trkpt lat="43.47332" lon="1.22076">
        <ele>179</ele>
        <time>2019-09-23T10:51:14+02:00</time>
      </trkpt>
      <trkpt lat="43.47324" lon="1.22068">
        <ele>178</ele>
        <time>2019-09-23T10:51:21+02:00</time>
      </trkpt>
      <trkpt lat="43.47316" lon="1.22061">
        <ele>178</ele>
        <time>2019-09-23T10:51:28+02:00</time>
      </trkpt>
      <trkpt lat="43.47307" lon="1.22054">
        <ele>178</ele>
        <time>2019-09-23T10:51:33+02:00</time>
      </trkpt>
      <trkpt lat="43.47297" lon="1.22049">
        <ele>178</ele>
        <time>2019-09-23T10:51:38+02:00</time>
      </trkpt>
      <trkpt lat="43.4729" lon="1.2204">
        <ele>177</ele>
        <time>2019-09-23T10:51:44+02:00</time>
      </trkpt>
      <trkpt lat="43.47282" lon="1.22033">
        <ele>176</ele>
        <time>2019-09-23T10:51:52+02:00</time>
      </trkpt>
      <trkpt lat="43.47273" lon="1.22026">
        <ele>177</ele>
        <time>2019-09-23T10:51:58+02:00</time>
      </trkpt>
      <trkpt lat="43.47265" lon="1.22018">
        <ele>178</ele>
        <time>2019-09-23T10:52:03+02:00</time>
      </trkpt>
      <trkpt lat="43.47257" lon="1.22011">
        <ele>180</ele>
        <time>2019-09-23T10:52:10+02:00</time>
      </trkpt>
      <trkpt lat="43.47247" lon="1.22005">
        <ele>178</ele>
        <time>2019-09-23T10:52:18+02:00</time>
      </trkpt>
      <trkpt lat="43.47238" lon="1.22">
        <ele>178</ele>
        <time>2019-09-23T10:52:22+02:00</time>
      </trkpt>
      <trkpt lat="43.4723" lon="1.21994">
        <ele>179</ele>
        <time>2019-09-23T10:52:28+02:00</time>
      </trkpt>
      <trkpt lat="43.4722" lon="1.21992">
        <ele>179</ele>
        <time>2019-09-23T10:52:36+02:00</time>
      </trkpt>
      <trkpt lat="43.4721" lon="1.21988">
        <ele>179</ele>
        <time>2019-09-23T10:52:42+02:00</time>
      </trkpt>
      <trkpt lat="43.47201" lon="1.21981">
        <ele>179</ele>
        <time>2019-09-23T10:52:48+02:00</time>
      </trkpt>
      <trkpt lat="43.47196" lon="1.21969">
        <ele>179</ele>
        <time>2019-09-23T10:52:57+02:00</time>
      </trkpt>
      <trkpt lat="43.47194" lon="1.21956">
        <ele>179</ele>
        <time>2019-09-23T10:53:04+02:00</time>
      </trkpt>
      <trkpt lat="43.4719" lon="1.21942">
        <ele>178</ele>
        <time>2019-09-23T10:53:11+02:00</time>
      </trkpt>
      <trkpt lat="43.47186" lon="1.2193">
        <ele>177</ele>
        <time>2019-09-23T10:53:17+02:00</time>
      </trkpt>
      <trkpt lat="43.47183" lon="1.21916">
        <ele>178</ele>
        <time>2019-09-23T10:53:23+02:00</time>
      </trkpt>
      <trkpt lat="43.4718" lon="1.21902">
        <ele>179</ele>
        <time>2019-09-23T10:53:30+02:00</time>
      </trkpt>
      <trkpt lat="43.47177" lon="1.21888">
        <ele>178</ele>
        <time>2019-09-23T10:53:36+02:00</time>
      </trkpt>
      <trkpt lat="43.47172" lon="1.21876">
        <ele>178</ele>
        <time>2019-09-23T10:53:43+02:00</time>
      </trkpt>
      <trkpt lat="43.47169" lon="1.21863">
        <ele>178</ele>
        <time>2019-09-23T10:53:51+02:00</time>
      </trkpt>
      <trkpt lat="43.47159" lon="1.21862">
        <ele>179</ele>
        <time>2019-09-23T10:54:02+02:00</time>
      </trkpt>
      <trkpt lat="43.47153" lon="1.21871">
        <ele>182</ele>
        <time>2019-09-23T10:54:09+02:00</time>
      </trkpt>
      <trkpt lat="43.47143" lon="1.21875">
        <ele>183</ele>
        <time>2019-09-23T10:54:16+02:00</time>
      </trkpt>
      <trkpt lat="43.47135" lon="1.21881">
        <ele>184</ele>
        <time>2019-09-23T10:54:22+02:00</time>
      </trkpt>
      <trkpt lat="43.47126" lon="1.21888">
        <ele>185</ele>
        <time>2019-09-23T10:54:29+02:00</time>
      </trkpt>
      <trkpt lat="43.47118" lon="1.21894">
        <ele>187</ele>
        <time>2019-09-23T10:54:34+02:00</time>
      </trkpt>
      <trkpt lat="43.47109" lon="1.21899">
        <ele>188</ele>
        <time>2019-09-23T10:54:41+02:00</time>
      </trkpt>
      <trkpt lat="43.471" lon="1.21902">
        <ele>187</ele>
        <time>2019-09-23T10:54:48+02:00</time>
      </trkpt>
      <trkpt lat="43.47092" lon="1.21904">
        <ele>187</ele>
        <time>2019-09-23T10:54:53+02:00</time>
      </trkpt>
      <trkpt lat="43.47083" lon="1.21907">
        <ele>187</ele>
        <time>2019-09-23T10:54:59+02:00</time>
      </trkpt>
      <trkpt lat="43.47073" lon="1.21913">
        <ele>187</ele>
        <time>2019-09-23T10:55:05+02:00</time>
      </trkpt>
      <trkpt lat="43.47065" lon="1.21918">
        <ele>186</ele>
        <time>2019-09-23T10:55:11+02:00</time>
      </trkpt>
      <trkpt lat="43.47055" lon="1.21925">
        <ele>185</ele>
        <time>2019-09-23T10:55:16+02:00</time>
      </trkpt>
      <trkpt lat="43.47046" lon="1.21929">
        <ele>182</ele>
        <time>2019-09-23T10:55:25+02:00</time>
      </trkpt>
      <trkpt lat="43.47036" lon="1.21934">
        <ele>181</ele>
        <time>2019-09-23T10:55:33+02:00</time>
      </trkpt>
      <trkpt lat="43.47028" lon="1.21941">
        <ele>181</ele>
        <time>2019-09-23T10:55:37+02:00</time>
      </trkpt>
      <trkpt lat="43.47019" lon="1.21946">
        <ele>179</ele>
        <time>2019-09-23T10:55:46+02:00</time>
      </trkpt>
      <trkpt lat="43.47012" lon="1.21955">
        <ele>179</ele>
        <time>2019-09-23T10:55:52+02:00</time>
      </trkpt>
      <trkpt lat="43.47002" lon="1.2196">
        <ele>178</ele>
        <time>2019-09-23T10:55:57+02:00</time>
      </trkpt>
      <trkpt lat="43.46993" lon="1.21964">
        <ele>179</ele>
        <time>2019-09-23T10:56:01+02:00</time>
      </trkpt>
      <trkpt lat="43.46985" lon="1.2197">
        <ele>179</ele>
        <time>2019-09-23T10:56:05+02:00</time>
      </trkpt>
      <trkpt lat="43.46977" lon="1.21977">
        <ele>179</ele>
        <time>2019-09-23T10:56:13+02:00</time>
      </trkpt>
      <trkpt lat="43.46969" lon="1.21987">
        <ele>178</ele>
        <time>2019-09-23T10:56:22+02:00</time>
      </trkpt>
      <trkpt lat="43.46961" lon="1.21993">
        <ele>178</ele>
        <time>2019-09-23T10:56:26+02:00</time>
      </trkpt>
      <trkpt lat="43.46952" lon="1.21999">
        <ele>178</ele>
        <time>2019-09-23T10:56:32+02:00</time>
      </trkpt>
      <trkpt lat="43.46944" lon="1.22005">
        <ele>177</ele>
        <time>2019-09-23T10:56:41+02:00</time>
      </trkpt>
      <trkpt lat="43.46935" lon="1.22012">
        <ele>177</ele>
        <time>2019-09-23T10:56:47+02:00</time>
      </trkpt>
      <trkpt lat="43.46925" lon="1.22019">
        <ele>177</ele>
        <time>2019-09-23T10:56:52+02:00</time>
      </trkpt>
      <trkpt lat="43.46916" lon="1.22025">
        <ele>179</ele>
        <time>2019-09-23T10:57:00+02:00</time>
      </trkpt>
      <trkpt lat="43.46908" lon="1.22035">
        <ele>180</ele>
        <time>2019-09-23T10:57:08+02:00</time>
      </trkpt>
      <trkpt lat="43.46899" lon="1.22042">
        <ele>181</ele>
        <time>2019-09-23T10:57:12+02:00</time>
      </trkpt>
      <trkpt lat="43.4689" lon="1.22048">
        <ele>183</ele>
        <time>2019-09-23T10:57:18+02:00</time>
      </trkpt>
      <trkpt lat="43.46883" lon="1.22055">
        <ele>184</ele>
        <time>2019-09-23T10:57:27+02:00</time>
      </trkpt>
      <trkpt lat="43.46873" lon="1.22059">
        <ele>185</ele>
        <time>2019-09-23T10:57:34+02:00</time>
      </trkpt>
      <trkpt lat="43.46865" lon="1.22068">
        <ele>186</ele>
        <time>2019-09-23T10:57:40+02:00</time>
      </trkpt>
      <trkpt lat="43.46857" lon="1.22074">
        <ele>187</ele>
        <time>2019-09-23T10:57:45+02:00</time>
      </trkpt>
      <trkpt lat="43.46847" lon="1.22077">
        <ele>186</ele>
        <time>2019-09-23T10:57:53+02:00</time>
      </trkpt>
      <trkpt lat="43.46838" lon="1.22082">
        <ele>184</ele>
        <time>2019-09-23T10:58:00+02:00</time>
      </trkpt>
      <trkpt lat="43.46829" lon="1.22084">
        <ele>181</ele>
        <time>2019-09-23T10:58:05+02:00</time>
      </trkpt>
      <trkpt lat="43.46819" lon="1.22084">
        <ele>173</ele>
        <time>2019-09-23T10:58:12+02:00</time>
      </trkpt>
      <trkpt lat="43.4681" lon="1.22086">
        <ele>168</ele>
        <time>2019-09-23T10:58:18+02:00</time>
      </trkpt>
      <trkpt lat="43.468" lon="1.2209">
        <ele>165</ele>
        <time>2019-09-23T10:58:26+02:00</time>
      </trkpt>
      <trkpt lat="43.46791" lon="1.22095">
        <ele>164</ele>
        <time>2019-09-23T10:58:32+02:00</time>
      </trkpt>
      <trkpt lat="43.46782" lon="1.22098">
        <ele>160</ele>
        <time>2019-09-23T10:58:39+02:00</time>
      </trkpt>
      <trkpt lat="43.46773" lon="1.22097">
        <ele>158</ele>
        <time>2019-09-23T10:58:43+02:00</time>
      </trkpt>
      <trkpt lat="43.46763" lon="1.22101">
        <ele>157</ele>
        <time>2019-09-23T10:58:48+02:00</time>
      </trkpt>
      <trkpt lat="43.46755" lon="1.2211">
        <ele>154</ele>
        <time>2019-09-23T10:58:58+02:00</time>
      </trkpt>
      <trkpt lat="43.46748" lon="1.22118">
        <ele>157</ele>
        <time>2019-09-23T10:59:04+02:00</time>
      </trkpt>
      <trkpt lat="43.4674" lon="1.22125">
        <ele>164</ele>
        <time>2019-09-23T10:59:11+02:00</time>
      </trkpt>
      <trkpt lat="43.46731" lon="1.22124">
        <ele>169</ele>
        <time>2019-09-23T10:59:16+02:00</time>
      </trkpt>
      <trkpt lat="43.46722" lon="1.22127">
        <ele>173</ele>
        <time>2019-09-23T10:59:21+02:00</time>
      </trkpt>
      <trkpt lat="43.46713" lon="1.22129">
        <ele>175</ele>
        <time>2019-09-23T10:59:25+02:00</time>
      </trkpt>
      <trkpt lat="43.46703" lon="1.22132">
        <ele>177</ele>
        <time>2019-09-23T10:59:30+02:00</time>
      </trkpt>
      <trkpt lat="43.46694" lon="1.22134">
        <ele>182</ele>
        <time>2019-09-23T10:59:38+02:00</time>
      </trkpt>
      <trkpt lat="43.46683" lon="1.22138">
        <ele>184</ele>
        <time>2019-09-23T10:59:45+02:00</time>
      </trkpt>
      <trkpt lat="43.46673" lon="1.22139">
        <ele>187</ele>
        <time>2019-09-23T10:59:51+02:00</time>
      </trkpt>
      <trkpt lat="43.46663" lon="1.22141">
        <ele>188</ele>
        <time>2019-09-23T10:59:58+02:00</time>
      </trkpt>
      <trkpt lat="43.46653" lon="1.22144">
        <ele>189</ele>
        <time>2019-09-23T11:00:04+02:00</time>
      </trkpt>
      <trkpt lat="43.46643" lon="1.22144">
        <ele>188</ele>
        <time>2019-09-23T11:00:09+02:00</time>
      </trkpt>
      <trkpt lat="43.46632" lon="1.22144">
        <ele>188</ele>
        <time>2019-09-23T11:00:15+02:00</time>
      </trkpt>
      <trkpt lat="43.46623" lon="1.22147">
        <ele>187</ele>
        <time>2019-09-23T11:00:22+02:00</time>
      </trkpt>
      <trkpt lat="43.46613" lon="1.22147">
        <ele>187</ele>
        <time>2019-09-23T11:00:29+02:00</time>
      </trkpt>
      <trkpt lat="43.46604" lon="1.22148">
        <ele>187</ele>
        <time>2019-09-23T11:00:34+02:00</time>
      </trkpt>
      <trkpt lat="43.46594" lon="1.22149">
        <ele>184</ele>
        <time>2019-09-23T11:00:40+02:00</time>
      </trkpt>
      <trkpt lat="43.46585" lon="1.22151">
        <ele>182</ele>
        <time>2019-09-23T11:00:47+02:00</time>
      </trkpt>
      <trkpt lat="43.46574" lon="1.22152">
        <ele>181</ele>
        <time>2019-09-23T11:00:53+02:00</time>
      </trkpt>
      <trkpt lat="43.46564" lon="1.22154">
        <ele>181</ele>
        <time>2019-09-23T11:01:00+02:00</time>
      </trkpt>
      <trkpt lat="43.46555" lon="1.22153">
        <ele>182</ele>
        <time>2019-09-23T11:01:06+02:00</time>
      </trkpt>
      <trkpt lat="43.46551" lon="1.22142">
        <ele>182</ele>
        <time>2019-09-23T11:01:13+02:00</time>
      </trkpt>
      <trkpt lat="43.4655" lon="1.22129">
        <ele>181</ele>
        <time>2019-09-23T11:01:20+02:00</time>
      </trkpt>
      <trkpt lat="43.4655" lon="1.22116">
        <ele>180</ele>
        <time>2019-09-23T11:01:26+02:00</time>
      </trkpt>
      <trkpt lat="43.46551" lon="1.22103">
        <ele>177</ele>
        <time>2019-09-23T11:01:32+02:00</time>
      </trkpt>
      <trkpt lat="43.46549" lon="1.22088">
        <ele>174</ele>
        <time>2019-09-23T11:01:40+02:00</time>
      </trkpt>
      <trkpt lat="43.46547" lon="1.22076">
        <ele>175</ele>
        <time>2019-09-23T11:01:46+02:00</time>
      </trkpt>
      <trkpt lat="43.46545" lon="1.22063">
        <ele>177</ele>
        <time>2019-09-23T11:01:52+02:00</time>
      </trkpt>
      <trkpt lat="43.46542" lon="1.22051">
        <ele>177</ele>
        <time>2019-09-23T11:01:59+02:00</time>
      </trkpt>
      <trkpt lat="43.46542" lon="1.22038">
        <ele>179</ele>
        <time>2019-09-23T11:02:05+02:00</time>
      </trkpt>
      <trkpt lat="43.46541" lon="1.22025">
        <ele>180</ele>
        <time>2019-09-23T11:02:12+02:00</time>
      </trkpt>
      <trkpt lat="43.46541" lon="1.22012">
        <ele>180</ele>
        <time>2019-09-23T11:02:18+02:00</time>
      </trkpt>
      <trkpt lat="43.4654" lon="1.21997">
        <ele>182</ele>
        <time>2019-09-23T11:02:24+02:00</time>
      </trkpt>
      <trkpt lat="43.46539" lon="1.21984">
        <ele>186</ele>
        <time>2019-09-23T11:02:32+02:00</time>
      </trkpt>
      <trkpt lat="43.46537" lon="1.21971">
        <ele>190</ele>
        <time>2019-09-23T11:02:39+02:00</time>
      </trkpt>
      <trkpt lat="43.46534" lon="1.21959">
        <ele>193</ele>
        <time>2019-09-23T11:02:46+02:00</time>
      </trkpt>
      <trkpt lat="43.46533" lon="1.21946">
        <ele>197</ele>
        <time>2019-09-23T11:02:53+02:00</time>
      </trkpt>
      <trkpt lat="43.46531" lon="1.21933">
        <ele>202</ele>
        <time>2019-09-23T11:03:03+02:00</time>
      </trkpt>
      <trkpt lat="43.46531" lon="1.2192">
        <ele>204</ele>
        <time>2019-09-23T11:03:11+02:00</time>
      </trkpt>
      <trkpt lat="43.46531" lon="1.21907">
        <ele>205</ele>
        <time>2019-09-23T11:03:21+02:00</time>
      </trkpt>
      <trkpt lat="43.46527" lon="1.21895">
        <ele>206</ele>
        <time>2019-09-23T11:03:29+02:00</time>
      </trkpt>
      <trkpt lat="43.46526" lon="1.21882">
        <ele>207</ele>
        <time>2019-09-23T11:03:37+02:00</time>
      </trkpt>
      <trkpt lat="43.46526" lon="1.2187">
        <ele>208</ele>
        <time>2019-09-23T11:03:45+02:00</time>
      </trkpt>
      <trkpt lat="43.46524" lon="1.21855">
        <ele>209</ele>
        <time>2019-09-23T11:03:52+02:00</time>
      </trkpt>
      <trkpt lat="43.46521" lon="1.21843">
        <ele>210</ele>
        <time>2019-09-23T11:04:00+02:00</time>
      </trkpt>
      <trkpt lat="43.46515" lon="1.21832">
        <ele>211</ele>
        <time>2019-09-23T11:04:07+02:00</time>
      </trkpt>
      <trkpt lat="43.46508" lon="1.21823">
        <ele>211</ele>
        <time>2019-09-23T11:04:13+02:00</time>
      </trkpt>
      <trkpt lat="43.46506" lon="1.21809">
        <ele>210</ele>
        <time>2019-09-23T11:04:21+02:00</time>
      </trkpt>
      <trkpt lat="43.46503" lon="1.21794">
        <ele>211</ele>
        <time>2019-09-23T11:04:27+02:00</time>
      </trkpt>
      <trkpt lat="43.46505" lon="1.21781">
        <ele>213</ele>
        <time>2019-09-23T11:04:34+02:00</time>
      </trkpt>
      <trkpt lat="43.465" lon="1.21771">
        <ele>216</ele>
        <time>2019-09-23T11:04:41+02:00</time>
      </trkpt>
      <trkpt lat="43.46501" lon="1.21758">
        <ele>217</ele>
        <time>2019-09-23T11:04:48+02:00</time>
      </trkpt>
      <trkpt lat="43.46507" lon="1.21747">
        <ele>216</ele>
        <time>2019-09-23T11:04:55+02:00</time>
      </trkpt>
      <trkpt lat="43.46509" lon="1.21734">
        <ele>215</ele>
        <time>2019-09-23T11:05:05+02:00</time>
      </trkpt>
      <trkpt lat="43.46516" lon="1.21724">
        <ele>215</ele>
        <time>2019-09-23T11:05:16+02:00</time>
      </trkpt>
      <trkpt lat="43.46524" lon="1.21718">
        <ele>214</ele>
        <time>2019-09-23T11:05:22+02:00</time>
      </trkpt>
      <trkpt lat="43.46533" lon="1.21711">
        <ele>212</ele>
        <time>2019-09-23T11:05:30+02:00</time>
      </trkpt>
      <trkpt lat="43.46539" lon="1.21701">
        <ele>209</ele>
        <time>2019-09-23T11:05:36+02:00</time>
      </trkpt>
      <trkpt lat="43.46546" lon="1.21691">
        <ele>207</ele>
        <time>2019-09-23T11:05:45+02:00</time>
      </trkpt>
      <trkpt lat="43.46553" lon="1.21683">
        <ele>206</ele>
        <time>2019-09-23T11:05:52+02:00</time>
      </trkpt>
      <trkpt lat="43.46561" lon="1.21676">
        <ele>208</ele>
        <time>2019-09-23T11:06:01+02:00</time>
      </trkpt>
    </trkseg>
  </trk>
</gpx>